Observation data for Caprock Canyons on 02/17/2017      Previous  Date  Next       Current Mesonet Observations  Soil Data  Daily Summary Page  Observations in Plain Language
KQU1 170601Z 21014KT 09/M01 A2982 RMK A01 T00881006  RH  052%=      5-min Rain = 0
KQU1 170602Z 21014KT 09/M01 A2982 RMK A01 T00891006  RH  051%=      5-min Rain = 0
KQU1 170603Z 21014KT 09/M01 A2982 RMK A01 T00891007  RH  051%=      5-min Rain = 0
KQU1 170604Z 21014KT 09/M01 A2982 RMK A01 T00901006  RH  051%=      5-min Rain = 0
KQU1 170605Z 21013KT 09/M01 A2982 RMK A01 T00891006  RH  051%=      5-min Rain = 0
KQU1 170606Z 21014KT 09/M01 A2982 RMK A01 T00901007  RH  051%=      5-min Rain = 0
KQU1 170607Z 21013KT 09/M01 A2982 RMK A01 T00901007  RH  050%=      5-min Rain = 0
KQU1 170608Z 22013KT 09/M01 A2982 RMK A01 T00911007  RH  050%=      5-min Rain = 0
KQU1 170609Z 21012KT 09/M01 A2982 RMK A01 T00911007  RH  050%=      5-min Rain = 0
KQU1 170610Z 21013KT 09/M01 A2982 RMK A01 T00911007  RH  050%=      5-min Rain = 0
KQU1 170611Z 21013KT 09/M01 A2982 RMK A01 T00911007  RH  050%=      5-min Rain = 0
KQU1 170612Z 21012KT 09/M01 A2982 RMK A01 T00911007  RH  050%=      5-min Rain = 0
KQU1 170613Z 21013KT 09/M01 A2982 RMK A01 T00911007  RH  050%=      5-min Rain = 0
KQU1 170614Z 21012KT 09/M01 A2982 RMK A01 T00911007  RH  050%=      5-min Rain = 0
KQU1 170615Z 21012KT 09/M01 A2982 RMK A01 T00921007  RH  050%=      5-min Rain = 0
KQU1 170616Z 21013KT 09/M01 A2982 RMK A01 T00921008  RH  050%=      5-min Rain = 0
KQU1 170617Z 21012KT 09/M01 A2982 RMK A01 T00931008  RH  050%=      5-min Rain = 0
KQU1 170618Z 21014KT 09/M01 A2982 RMK A01 T00931008  RH  049%=      5-min Rain = 0
KQU1 170619Z 21012KT 09/M01 A2982 RMK A01 T00931008  RH  049%=      5-min Rain = 0
KQU1 170620Z 21012KT 09/M01 A2982 RMK A01 T00931008  RH  049%=      5-min Rain = 0
KQU1 170621Z 21012KT 09/M01 A2982 RMK A01 T00941008  RH  049%=      5-min Rain = 0
KQU1 170622Z 21011KT 09/M01 A2982 RMK A01 T00941008  RH  049%=      5-min Rain = 0
KQU1 170623Z 21012KT 09/M01 A2982 RMK A01 T00941008  RH  049%=      5-min Rain = 0
KQU1 170624Z 21013KT 09/M01 A2982 RMK A01 T00941009  RH  049%=      5-min Rain = 0
KQU1 170625Z 21011KT 09/M01 A2981 RMK A01 T00941008  RH  049%=      5-min Rain = 0
KQU1 170626Z 21012KT 09/M01 A2981 RMK A01 T00931008  RH  049%=      5-min Rain = 0
KQU1 170627Z 21013KT 09/M01 A2981 RMK A01 T00931009  RH  049%=      5-min Rain = 0
KQU1 170628Z 21011KT 09/M01 A2981 RMK A01 T00931008  RH  049%=      5-min Rain = 0
KQU1 170629Z 21011KT 09/M01 A2981 RMK A01 T00931008  RH  049%=      5-min Rain = 0
KQU1 170630Z 21012KT 09/M01 A2981 RMK A01 T00931008  RH  049%=      5-min Rain = 0
KQU1 170631Z 21013KT 09/M01 A2981 RMK A01 T00931009  RH  049%=      5-min Rain = 0
KQU1 170632Z 21011KT 09/M01 A2981 RMK A01 T00941008  RH  049%=      5-min Rain = 0
KQU1 170633Z 21012KT 09/M01 A2981 RMK A01 T00931007  RH  049%=      5-min Rain = 0
KQU1 170634Z 21013KT 09/M01 A2981 RMK A01 T00941008  RH  049%=      5-min Rain = 0
KQU1 170635Z 21013KT 09/M01 A2981 RMK A01 T00941008  RH  049%=      5-min Rain = 0
KQU1 170636Z 22013KT 10/M01 A2981 RMK A01 T00951008  RH  049%=      5-min Rain = 0
KQU1 170637Z 21013KT 10/M01 A2981 RMK A01 T00951008  RH  049%=      5-min Rain = 0
KQU1 170638Z 21016G21KT 10/M01 A2981 RMK A01 T00971008  RH  048%=      5-min Rain = 0
KQU1 170639Z 21016KT 10/M01 A2981 RMK A01 T00991007  RH  048%=      5-min Rain = 0
KQU1 170640Z 21017KT 10/M01 A2981 RMK A01 T00991007  RH  047%=      5-min Rain = 0
KQU1 170641Z 21018KT 10/M01 A2981 RMK A01 T01011008  RH  047%=      5-min Rain = 0
KQU1 170642Z 22019G25KT 10/M01 A2981 RMK A01 T01021007  RH  047%=      5-min Rain = 0
KQU1 170643Z 22020KT 10/M01 A2981 RMK A01 T01031007  RH  046%=      5-min Rain = 0
KQU1 170644Z 21017KT 10/M01 A2981 RMK A01 T01041006  RH  046%=      5-min Rain = 0
KQU1 170645Z 22017KT 10/M01 A2981 RMK A01 T01031005  RH  047%=      5-min Rain = 0
KQU1 170646Z 21017KT 10/M01 A2981 RMK A01 T01031006  RH  047%=      5-min Rain = 0
KQU1 170647Z 21015KT 10/M01 A2981 RMK A01 T01021005  RH  047%=      5-min Rain = 0
KQU1 170648Z 22016KT 10/M00 A2981 RMK A01 T01021004  RH  048%=      5-min Rain = 0
KQU1 170649Z 22016KT 10/M00 A2981 RMK A01 T01021003  RH  048%=      5-min Rain = 0
KQU1 170650Z 21017KT 10/M00 A2981 RMK A01 T01021003  RH  048%=      5-min Rain = 0
KQU1 170651Z 21017G22KT 10/M00 A2981 RMK A01 T01021002  RH  048%=      5-min Rain = 0
KQU1 170652Z 21017KT 10/M00 A2981 RMK A01 T01021002  RH  048%=      5-min Rain = 0
KQU1 170653Z 21017KT 10/M00 A2981 RMK A01 T01021002  RH  049%=      5-min Rain = 0
KQU1 170654Z 22017KT 10/M00 A298 RMK A01 T01021001  RH  049%=      5-min Rain = 0
KQU1 170655Z 21017KT 10/M00 A298 RMK A01 T01021001  RH  049%=      5-min Rain = 0
KQU1 170656Z 21017KT 10/M00 A298 RMK A01 T01021001  RH  049%=      5-min Rain = 0
KQU1 170657Z 22017KT 10/00 A298 RMK A01 T010200-0  RH  049%=      5-min Rain = 0
KQU1 170658Z 21020G25KT 10/M00 A298 RMK A01 T01031001  RH  049%=      5-min Rain = 0
KQU1 170659Z 21019KT 10/M00 A298 RMK A01 T01031001  RH  048%=      5-min Rain = 0
KQU1 170700Z 22018KT 10/00 A298 RMK A01 T01040000  RH  049%=      5-min Rain = 0
KQU1 170701Z 22019KT 10/00 A298 RMK A01 T010400-0  RH  048%=      5-min Rain = 0
KQU1 170702Z 22016KT 10/00 A298 RMK A01 T01040001  RH  049%=      5-min Rain = 0
KQU1 170703Z 22020KT 10/00 A298 RMK A01 T010400-0  RH  048%=      5-min Rain = 0
KQU1 170704Z 22021G28KT 11/00 A2979 RMK A01 T01050000  RH  048%=      5-min Rain = 0
KQU1 170705Z 22019KT 11/00 A2979 RMK A01 T01060000  RH  048%=      5-min Rain = 0
KQU1 170706Z 22020G25KT 11/00 A2979 RMK A01 T01060001  RH  048%=      5-min Rain = 0
KQU1 170707Z 22019KT 11/00 A2979 RMK A01 T01060001  RH  048%=      5-min Rain = 0
KQU1 170708Z 22020KT 11/00 A2979 RMK A01 T01060001  RH  048%=      5-min Rain = 0
KQU1 170709Z 22019G24KT 11/00 A2979 RMK A01 T01060002  RH  049%=      5-min Rain = 0
KQU1 170710Z 22023G30KT 11/00 A2979 RMK A01 T01060001  RH  048%=      5-min Rain = 0
KQU1 170711Z 22022KT 11/00 A2979 RMK A01 T01080000  RH  047%=      5-min Rain = 0
KQU1 170712Z 22021KT 11/00 A2979 RMK A01 T01080000  RH  047%=      5-min Rain = 0
KQU1 170713Z 22021KT 11/00 A2979 RMK A01 T01090001  RH  047%=      5-min Rain = 0
KQU1 170714Z 22021G27KT 11/00 A2979 RMK A01 T01090001  RH  047%=      5-min Rain = 0
KQU1 170715Z 22020G29KT 11/00 A2979 RMK A01 T01090001  RH  047%=      5-min Rain = 0
KQU1 170716Z 22021KT 11/00 A2979 RMK A01 T01090001  RH  047%=      5-min Rain = 0
KQU1 170717Z 22023G28KT 11/00 A2979 RMK A01 T01090001  RH  047%=      5-min Rain = 0
KQU1 170718Z 22022KT 11/00 A2979 RMK A01 T01080001  RH  047%=      5-min Rain = 0
KQU1 170719Z 22019KT 11/00 A2979 RMK A01 T01080002  RH  048%=      5-min Rain = 0
KQU1 170720Z 22020KT 11/00 A2979 RMK A01 T01070001  RH  048%=      5-min Rain = 0
KQU1 170721Z 22019G26KT 11/00 A2979 RMK A01 T01060002  RH  048%=      5-min Rain = 0
KQU1 170722Z 22021KT 11/00 A2978 RMK A01 T01060001  RH  048%=      5-min Rain = 0
KQU1 170723Z 22020KT 11/00 A2978 RMK A01 T01060001  RH  048%=      5-min Rain = 0
KQU1 170724Z 22020KT 11/00 A2978 RMK A01 T01060001  RH  048%=      5-min Rain = 0
KQU1 170725Z 22021KT 11/00 A2978 RMK A01 T01060001  RH  048%=      5-min Rain = 0
KQU1 170726Z 22021G27KT 11/00 A2978 RMK A01 T01060001  RH  048%=      5-min Rain = 0
KQU1 170727Z 22023KT 11/00 A2978 RMK A01 T01070001  RH  048%=      5-min Rain = 0
KQU1 170728Z 22022G27KT 11/00 A2978 RMK A01 T01070001  RH  048%=      5-min Rain = 0
KQU1 170729Z 22023KT 11/00 A2978 RMK A01 T01070000  RH  048%=      5-min Rain = 0
KQU1 170730Z 22023KT 11/00 A2978 RMK A01 T01070000  RH  048%=      5-min Rain = 0
KQU1 170731Z 22022KT 11/00 A2978 RMK A01 T01070000  RH  048%=      5-min Rain = 0
KQU1 170732Z 23023G28KT 11/00 A2978 RMK A01 T01070000  RH  048%=      5-min Rain = 0
KQU1 170733Z 22019G24KT 11/00 A2978 RMK A01 T01070001  RH  048%=      5-min Rain = 0
KQU1 170734Z 22025KT 11/00 A2978 RMK A01 T01070001  RH  048%=      5-min Rain = 0
KQU1 170735Z 22020G25KT 11/00 A2978 RMK A01 T01070001  RH  048%=      5-min Rain = 0
KQU1 170736Z 22022G27KT 11/00 A2978 RMK A01 T01060001  RH  048%=      5-min Rain = 0
KQU1 170737Z 22020G26KT 11/00 A2978 RMK A01 T01060002  RH  048%=      5-min Rain = 0
KQU1 170738Z 22023G30KT 11/00 A2978 RMK A01 T01060002  RH  049%=      5-min Rain = 0
KQU1 170739Z 22023KT 11/00 A2977 RMK A01 T01070001  RH  048%=      5-min Rain = 0
KQU1 170740Z 22021KT 11/00 A2978 RMK A01 T01070002  RH  048%=      5-min Rain = 0
KQU1 170741Z 22022KT 11/00 A2978 RMK A01 T01060002  RH  048%=      5-min Rain = 0
KQU1 170742Z 22022G28KT 11/00 A2978 RMK A01 T01070001  RH  048%=      5-min Rain = 0
KQU1 170743Z 22021KT 11/00 A2978 RMK A01 T01070001  RH  048%=      5-min Rain = 0
KQU1 170744Z 22022KT 11/00 A2978 RMK A01 T01070002  RH  048%=      5-min Rain = 0
KQU1 170745Z 22018KT 11/00 A2978 RMK A01 T01070002  RH  048%=      5-min Rain = 0
KQU1 170746Z 22018G23KT 11/00 A2978 RMK A01 T01060001  RH  048%=      5-min Rain = 0
KQU1 170747Z 22021KT 11/00 A2978 RMK A01 T01060001  RH  048%=      5-min Rain = 0
KQU1 170748Z 22019G24KT 11/00 A2978 RMK A01 T01070001  RH  048%=      5-min Rain = 0
KQU1 170749Z 22019KT 11/00 A2978 RMK A01 T01060001  RH  048%=      5-min Rain = 0
KQU1 170750Z 22018KT 11/00 A2978 RMK A01 T01060001  RH  048%=      5-min Rain = 0
KQU1 170751Z 22020KT 11/00 A2978 RMK A01 T01060001  RH  048%=      5-min Rain = 0
KQU1 170752Z 22019KT 11/00 A2978 RMK A01 T01070001  RH  048%=      5-min Rain = 0
KQU1 170753Z 23020G25KT 11/00 A2977 RMK A01 T01070001  RH  048%=      5-min Rain = 0
KQU1 170754Z 23018KT 11/00 A2978 RMK A01 T01080001  RH  047%=      5-min Rain = 0
KQU1 170755Z 22017KT 11/00 A2978 RMK A01 T01080001  RH  047%=      5-min Rain = 0
KQU1 170756Z 23018KT 11/00 A2978 RMK A01 T01080001  RH  047%=      5-min Rain = 0
KQU1 170757Z 22017G25KT 11/00 A2978 RMK A01 T01080001  RH  047%=      5-min Rain = 0
KQU1 170758Z 23021G26KT 11/00 A2977 RMK A01 T010900-0  RH  047%=      5-min Rain = 0
KQU1 170759Z 23020G25KT 11/00 A2977 RMK A01 T011000-0  RH  046%=      5-min Rain = 0
KQU1 170800Z 23017KT 11/00 A2977 RMK A01 T01100001  RH  047%=      5-min Rain = 0
KQU1 170801Z 23016KT 11/00 A2977 RMK A01 T01100001  RH  047%=      5-min Rain = 0
KQU1 170802Z 23019KT 11/00 A2977 RMK A01 T01100001  RH  047%=      5-min Rain = 0
KQU1 170803Z 23018KT 11/00 A2977 RMK A01 T01100001  RH  047%=      5-min Rain = 0
KQU1 170804Z 23020KT 11/00 A2977 RMK A01 T01100000  RH  047%=      5-min Rain = 0
KQU1 170805Z 22021KT 11/00 A2977 RMK A01 T01110000  RH  046%=      5-min Rain = 0
KQU1 170806Z 22020G25KT 11/00 A2977 RMK A01 T011100-0  RH  046%=      5-min Rain = 0
KQU1 170807Z 22017G22KT 11/00 A2977 RMK A01 T01110001  RH  047%=      5-min Rain = 0
KQU1 170808Z 22019KT 11/00 A2977 RMK A01 T01110001  RH  047%=      5-min Rain = 0
KQU1 170809Z 22017KT 11/00 A2977 RMK A01 T01100001  RH  047%=      5-min Rain = 0
KQU1 170810Z 22019KT 11/00 A2977 RMK A01 T01100001  RH  047%=      5-min Rain = 0
KQU1 170811Z 22019KT 11/00 A2977 RMK A01 T01100001  RH  047%=      5-min Rain = 0
KQU1 170812Z 22016G23KT 11/00 A2977 RMK A01 T01100002  RH  047%=      5-min Rain = 0
KQU1 170813Z 22017KT 11/00 A2977 RMK A01 T01090002  RH  048%=      5-min Rain = 0
KQU1 170814Z 22015KT 11/00 A2977 RMK A01 T01080003  RH  048%=      5-min Rain = 0
KQU1 170815Z 21016KT 11/00 A2977 RMK A01 T01070003  RH  048%=      5-min Rain = 0
KQU1 170816Z 22016KT 11/00 A2977 RMK A01 T01070003  RH  049%=      5-min Rain = 0
KQU1 170817Z 21017G23KT 11/00 A2977 RMK A01 T01060003  RH  049%=      5-min Rain = 0
KQU1 170818Z 21016KT 11/00 A2977 RMK A01 T01060003  RH  049%=      5-min Rain = 0
KQU1 170819Z 22018KT 11/00 A2977 RMK A01 T01060003  RH  049%=      5-min Rain = 0
KQU1 170820Z 22018KT 11/00 A2977 RMK A01 T01060003  RH  049%=      5-min Rain = 0
KQU1 170821Z 22017KT 11/00 A2977 RMK A01 T01060004  RH  049%=      5-min Rain = 0
KQU1 170822Z 22018G23KT 11/00 A2977 RMK A01 T01050004  RH  049%=      5-min Rain = 0
KQU1 170823Z 22017KT 11/00 A2977 RMK A01 T01050004  RH  050%=      5-min Rain = 0
KQU1 170824Z 22018KT 10/00 A2977 RMK A01 T01040003  RH  050%=      5-min Rain = 0
KQU1 170825Z 22018KT 10/00 A2977 RMK A01 T01040004  RH  050%=      5-min Rain = 0
KQU1 170826Z 22019G24KT 10/00 A2976 RMK A01 T01040004  RH  050%=      5-min Rain = 0
KQU1 170827Z 22021KT 11/00 A2976 RMK A01 T01050003  RH  050%=      5-min Rain = 0
KQU1 170828Z 22017KT 11/00 A2976 RMK A01 T01050004  RH  050%=      5-min Rain = 0
KQU1 170829Z 22017KT 10/00 A2976 RMK A01 T01030004  RH  050%=      5-min Rain = 0
KQU1 170830Z 22015KT 10/01 A2976 RMK A01 T01020005  RH  051%=      5-min Rain = 0
KQU1 170831Z 22017KT 10/01 A2976 RMK A01 T01010005  RH  051%=      5-min Rain = 0
KQU1 170832Z 22018KT 10/01 A2976 RMK A01 T01020005  RH  051%=      5-min Rain = 0
KQU1 170833Z 22020KT 10/00 A2976 RMK A01 T01020004  RH  051%=      5-min Rain = 0
KQU1 170834Z 21017KT 10/01 A2976 RMK A01 T01020005  RH  051%=      5-min Rain = 0
KQU1 170835Z 22019KT 10/01 A2976 RMK A01 T01010005  RH  051%=      5-min Rain = 0
KQU1 170836Z 21016KT 10/01 A2976 RMK A01 T01010005  RH  051%=      5-min Rain = 0
KQU1 170837Z 21016KT 10/01 A2976 RMK A01 T01000006  RH  052%=      5-min Rain = 0
KQU1 170838Z 21017KT 10/01 A2976 RMK A01 T00990005  RH  052%=      5-min Rain = 0
KQU1 170839Z 21017KT 10/01 A2976 RMK A01 T00990005  RH  052%=      5-min Rain = 0
KQU1 170840Z 21017KT 10/01 A2976 RMK A01 T00990005  RH  052%=      5-min Rain = 0
KQU1 170841Z 21017KT 10/01 A2976 RMK A01 T00990006  RH  052%=      5-min Rain = 0
KQU1 170842Z 21017KT 10/01 A2976 RMK A01 T00980006  RH  053%=      5-min Rain = 0
KQU1 170843Z 21017KT 10/01 A2976 RMK A01 T00980006  RH  053%=      5-min Rain = 0
KQU1 170844Z 21015G20KT 10/01 A2976 RMK A01 T00970006  RH  053%=      5-min Rain = 0
KQU1 170845Z 21016KT 10/01 A2976 RMK A01 T00960007  RH  054%=      5-min Rain = 0
KQU1 170846Z 21017KT 10/01 A2977 RMK A01 T00950007  RH  054%=      5-min Rain = 0
KQU1 170847Z 21017KT 10/01 A2976 RMK A01 T00960006  RH  054%=      5-min Rain = 0
KQU1 170848Z 21017KT 10/01 A2977 RMK A01 T00950007  RH  054%=      5-min Rain = 0
KQU1 170849Z 21016G22KT 10/01 A2977 RMK A01 T00950007  RH  054%=      5-min Rain = 0
KQU1 170850Z 21016KT 10/01 A2977 RMK A01 T00950007  RH  054%=      5-min Rain = 0
KQU1 170851Z 20016KT 09/01 A2977 RMK A01 T00940007  RH  054%=      5-min Rain = 0
KQU1 170852Z 21017KT 09/01 A2977 RMK A01 T00940007  RH  055%=      5-min Rain = 0
KQU1 170853Z 21015KT 09/01 A2977 RMK A01 T00930007  RH  055%=      5-min Rain = 0
KQU1 170854Z 20015KT 09/01 A2977 RMK A01 T00920008  RH  056%=      5-min Rain = 0
KQU1 170855Z 21017G22KT 09/01 A2977 RMK A01 T00910008  RH  056%=      5-min Rain = 0
KQU1 170856Z 20016KT 09/01 A2977 RMK A01 T00920007  RH  055%=      5-min Rain = 0
KQU1 170857Z 21014KT 09/01 A2977 RMK A01 T00910008  RH  056%=      5-min Rain = 0
KQU1 170858Z 21017KT 09/01 A2976 RMK A01 T00910008  RH  056%=      5-min Rain = 0
KQU1 170859Z 21014KT 09/01 A2976 RMK A01 T00900008  RH  056%=      5-min Rain = 0
KQU1 170900Z 21015KT 09/01 A2976 RMK A01 T00900008  RH  056%=      5-min Rain = 0
KQU1 170901Z 22017KT 09/01 A2976 RMK A01 T00910007  RH  056%=      5-min Rain = 0
KQU1 170902Z 21017KT 09/01 A2976 RMK A01 T00920007  RH  055%=      5-min Rain = 0
KQU1 170903Z 22016KT 09/01 A2976 RMK A01 T00920007  RH  056%=      5-min Rain = 0
KQU1 170904Z 22015KT 09/01 A2976 RMK A01 T00910008  RH  056%=      5-min Rain = 0
KQU1 170905Z 22016KT 09/01 A2975 RMK A01 T00910008  RH  056%=      5-min Rain = 0
KQU1 170906Z 22016KT 09/01 A2975 RMK A01 T00910008  RH  056%=      5-min Rain = 0
KQU1 170907Z 21014KT 09/01 A2975 RMK A01 T00900008  RH  056%=      5-min Rain = 0
KQU1 170908Z 22017KT 09/01 A2975 RMK A01 T00910007  RH  056%=      5-min Rain = 0
KQU1 170909Z 22017G22KT 09/01 A2975 RMK A01 T00910007  RH  056%=      5-min Rain = 0
KQU1 170910Z 22016KT 09/01 A2975 RMK A01 T00910007  RH  056%=      5-min Rain = 0
KQU1 170911Z 21016KT 09/01 A2975 RMK A01 T00910007  RH  056%=      5-min Rain = 0
KQU1 170912Z 22017KT 09/01 A2975 RMK A01 T00910007  RH  056%=      5-min Rain = 0
KQU1 170913Z 21017G22KT 09/01 A2975 RMK A01 T00920007  RH  055%=      5-min Rain = 0
KQU1 170914Z 21016KT 09/01 A2975 RMK A01 T00910007  RH  056%=      5-min Rain = 0
KQU1 170915Z 21017KT 09/01 A2975 RMK A01 T00910007  RH  056%=      5-min Rain = 0
KQU1 170916Z 21017KT 09/01 A2975 RMK A01 T00910007  RH  056%=      5-min Rain = 0
KQU1 170917Z 21016KT 09/01 A2975 RMK A01 T00910008  RH  056%=      5-min Rain = 0
KQU1 170918Z 22017G22KT 09/01 A2975 RMK A01 T00900008  RH  056%=      5-min Rain = 0
KQU1 170919Z 22017KT 09/01 A2975 RMK A01 T00900007  RH  056%=      5-min Rain = 0
KQU1 170920Z 21015G21KT 09/01 A2974 RMK A01 T00900007  RH  056%=      5-min Rain = 0
KQU1 170921Z 22019KT 09/01 A2974 RMK A01 T00900007  RH  056%=      5-min Rain = 0
KQU1 170922Z 22016KT 09/01 A2974 RMK A01 T00900008  RH  056%=      5-min Rain = 0
KQU1 170923Z 22019KT 09/01 A2974 RMK A01 T00890007  RH  056%=      5-min Rain = 0
KQU1 170924Z 22018KT 09/01 A2974 RMK A01 T00900007  RH  056%=      5-min Rain = 0
KQU1 170925Z 22018KT 09/01 A2974 RMK A01 T00900007  RH  056%=      5-min Rain = 0
KQU1 170926Z 22018KT 09/01 A2974 RMK A01 T00900007  RH  056%=      5-min Rain = 0
KQU1 170927Z 22016G21KT 09/01 A2974 RMK A01 T00900007  RH  056%=      5-min Rain = 0
KQU1 170928Z 21021KT 09/01 A2974 RMK A01 T00900007  RH  056%=      5-min Rain = 0
KQU1 170929Z 22018G23KT 09/01 A2974 RMK A01 T00900007  RH  056%=      5-min Rain = 0
KQU1 170930Z 22018KT 09/01 A2974 RMK A01 T00900007  RH  056%=      5-min Rain = 0
KQU1 170931Z 22016KT 09/01 A2974 RMK A01 T00890007  RH  056%=      5-min Rain = 0
KQU1 170932Z 22017KT 09/01 A2974 RMK A01 T00890007  RH  056%=      5-min Rain = 0
KQU1 170933Z 22017KT 09/01 A2974 RMK A01 T00890007  RH  056%=      5-min Rain = 0
KQU1 170934Z 22016G22KT 09/01 A2974 RMK A01 T00890007  RH  056%=      5-min Rain = 0
KQU1 170935Z 22017KT 09/01 A2974 RMK A01 T00890006  RH  056%=      5-min Rain = 0
KQU1 170936Z 22018KT 09/01 A2973 RMK A01 T00890006  RH  056%=      5-min Rain = 0
KQU1 170937Z 21019KT 09/01 A2973 RMK A01 T00890007  RH  056%=      5-min Rain = 0
KQU1 170938Z 22018KT 09/01 A2974 RMK A01 T00890007  RH  056%=      5-min Rain = 0
KQU1 170939Z 22018KT 09/01 A2973 RMK A01 T00890006  RH  056%=      5-min Rain = 0
KQU1 170940Z 22017KT 09/01 A2974 RMK A01 T00880006  RH  056%=      5-min Rain = 0
KQU1 170941Z 21017KT 09/01 A2973 RMK A01 T00880006  RH  056%=      5-min Rain = 0
KQU1 170942Z 21017KT 09/01 A2974 RMK A01 T00880006  RH  056%=      5-min Rain = 0
KQU1 170943Z 22016KT 09/01 A2974 RMK A01 T00880006  RH  057%=      5-min Rain = 0
KQU1 170944Z 21016KT 09/01 A2974 RMK A01 T00870006  RH  057%=      5-min Rain = 0
KQU1 170945Z 21015KT 09/01 A2974 RMK A01 T00860007  RH  057%=      5-min Rain = 0
KQU1 170946Z 21015KT 09/01 A2974 RMK A01 T00860007  RH  057%=      5-min Rain = 0
KQU1 170947Z 21015KT 09/01 A2974 RMK A01 T00850007  RH  058%=      5-min Rain = 0
KQU1 170948Z 21016KT 09/01 A2974 RMK A01 T00850007  RH  058%=      5-min Rain = 0
KQU1 170949Z 22017KT 09/01 A2973 RMK A01 T00850006  RH  058%=      5-min Rain = 0
KQU1 170950Z 21017KT 09/01 A2973 RMK A01 T00850006  RH  057%=      5-min Rain = 0
KQU1 170951Z 21017KT 09/01 A2973 RMK A01 T00860006  RH  057%=      5-min Rain = 0
KQU1 170952Z 22015KT 09/01 A2974 RMK A01 T00860007  RH  058%=      5-min Rain = 0
KQU1 170953Z 21017KT 09/01 A2974 RMK A01 T00850006  RH  058%=      5-min Rain = 0
KQU1 170954Z 21018G24KT 09/01 A2974 RMK A01 T00850006  RH  057%=      5-min Rain = 0
KQU1 170955Z 21019KT 09/01 A2973 RMK A01 T00860006  RH  057%=      5-min Rain = 0
KQU1 170956Z 21017KT 09/01 A2973 RMK A01 T00860006  RH  057%=      5-min Rain = 0
KQU1 170957Z 21016KT 09/01 A2974 RMK A01 T00860006  RH  057%=      5-min Rain = 0
KQU1 170958Z 21018KT 09/01 A2973 RMK A01 T00850006  RH  057%=      5-min Rain = 0
KQU1 170959Z 20017KT 09/01 A2974 RMK A01 T00860006  RH  057%=      5-min Rain = 0
KQU1 171000Z 21019KT 09/01 A2974 RMK A01 T00850006  RH  057%=      5-min Rain = 0
KQU1 171001Z 21017KT 09/01 A2974 RMK A01 T00850006  RH  057%=      5-min Rain = 0
KQU1 171002Z 21016KT 09/01 A2974 RMK A01 T00850006  RH  058%=      5-min Rain = 0
KQU1 171003Z 21015KT 08/01 A2974 RMK A01 T00840006  RH  058%=      5-min Rain = 0
KQU1 171004Z 20015KT 08/01 A2974 RMK A01 T00830006  RH  058%=      5-min Rain = 0
KQU1 171005Z 21015KT 08/01 A2974 RMK A01 T00820007  RH  059%=      5-min Rain = 0
KQU1 171006Z 21014KT 08/01 A2974 RMK A01 T00820006  RH  059%=      5-min Rain = 0
KQU1 171007Z 21016KT 08/01 A2974 RMK A01 T00810006  RH  059%=      5-min Rain = 0
KQU1 171008Z 21016KT 08/01 A2974 RMK A01 T00810006  RH  059%=      5-min Rain = 0
KQU1 171009Z 21017KT 08/01 A2974 RMK A01 T00810006  RH  059%=      5-min Rain = 0
KQU1 171010Z 21014KT 08/01 A2974 RMK A01 T00820006  RH  059%=      5-min Rain = 0
KQU1 171011Z 21016KT 08/01 A2974 RMK A01 T00810006  RH  059%=      5-min Rain = 0
KQU1 171012Z 21017KT 08/01 A2974 RMK A01 T00810006  RH  059%=      5-min Rain = 0
KQU1 171013Z 21015KT 08/01 A2974 RMK A01 T00810006  RH  059%=      5-min Rain = 0
KQU1 171014Z 21015KT 08/01 A2974 RMK A01 T00810006  RH  059%=      5-min Rain = 0
KQU1 171015Z 21016KT 08/01 A2974 RMK A01 T00800006  RH  059%=      5-min Rain = 0
KQU1 171016Z 21015KT 08/01 A2974 RMK A01 T00800006  RH  059%=      5-min Rain = 0
KQU1 171017Z 21017KT 08/01 A2974 RMK A01 T00800006  RH  060%=      5-min Rain = 0
KQU1 171018Z 21016KT 08/01 A2974 RMK A01 T00800006  RH  059%=      5-min Rain = 0
KQU1 171019Z 21014KT 08/01 A2974 RMK A01 T00800006  RH  059%=      5-min Rain = 0
KQU1 171020Z 21014KT 08/01 A2974 RMK A01 T00790006  RH  060%=      5-min Rain = 0
KQU1 171021Z 21015KT 08/01 A2974 RMK A01 T00790006  RH  060%=      5-min Rain = 0
KQU1 171022Z 21014KT 08/01 A2974 RMK A01 T00790006  RH  060%=      5-min Rain = 0
KQU1 171023Z 20014KT 08/01 A2974 RMK A01 T00780006  RH  060%=      5-min Rain = 0
KQU1 171024Z 21015KT 08/01 A2974 RMK A01 T00780006  RH  060%=      5-min Rain = 0
KQU1 171025Z 20014KT 08/01 A2974 RMK A01 T00780006  RH  060%=      5-min Rain = 0
KQU1 171026Z 20015KT 08/01 A2974 RMK A01 T00780006  RH  060%=      5-min Rain = 0
KQU1 171027Z 21014KT 08/01 A2974 RMK A01 T00780007  RH  061%=      5-min Rain = 0
KQU1 171028Z 20016KT 08/01 A2974 RMK A01 T00780006  RH  061%=      5-min Rain = 0
KQU1 171029Z 20016KT 08/01 A2974 RMK A01 T00780006  RH  060%=      5-min Rain = 0
KQU1 171030Z 21015KT 08/01 A2974 RMK A01 T00790006  RH  060%=      5-min Rain = 0
KQU1 171031Z 21015KT 08/01 A2974 RMK A01 T00790006  RH  060%=      5-min Rain = 0
KQU1 171032Z 21014KT 08/01 A2974 RMK A01 T00780007  RH  061%=      5-min Rain = 0
KQU1 171033Z 21013KT 08/01 A2974 RMK A01 T00780007  RH  061%=      5-min Rain = 0
KQU1 171034Z 21013KT 08/01 A2974 RMK A01 T00770007  RH  061%=      5-min Rain = 0
KQU1 171035Z 21015KT 08/01 A2974 RMK A01 T00770006  RH  061%=      5-min Rain = 0
KQU1 171036Z 21013KT 08/01 A2974 RMK A01 T00770006  RH  061%=      5-min Rain = 0
KQU1 171037Z 20012KT 08/01 A2974 RMK A01 T00770006  RH  061%=      5-min Rain = 0
KQU1 171038Z 21011KT 08/01 A2974 RMK A01 T00770007  RH  061%=      5-min Rain = 0
KQU1 171039Z 21012KT 08/01 A2974 RMK A01 T00760007  RH  061%=      5-min Rain = 0
KQU1 171040Z 22012KT 08/01 A2974 RMK A01 T00760007  RH  062%=      5-min Rain = 0
KQU1 171041Z 21012KT 08/01 A2974 RMK A01 T00760006  RH  061%=      5-min Rain = 0
KQU1 171042Z 21012KT 08/01 A2974 RMK A01 T00760006  RH  061%=      5-min Rain = 0
KQU1 171043Z 21013KT 08/01 A2974 RMK A01 T00760006  RH  061%=      5-min Rain = 0
KQU1 171044Z 21014G19KT 08/01 A2974 RMK A01 T00760007  RH  062%=      5-min Rain = 0
KQU1 171045Z 21013KT 08/01 A2974 RMK A01 T00760007  RH  062%=      5-min Rain = 0
KQU1 171046Z 20012KT 08/01 A2974 RMK A01 T00760007  RH  062%=      5-min Rain = 0
KQU1 171047Z 20013KT 08/01 A2974 RMK A01 T00750007  RH  062%=      5-min Rain = 0
KQU1 171048Z 19012KT 08/01 A2974 RMK A01 T00750007  RH  062%=      5-min Rain = 0
KQU1 171049Z 19012KT 07/01 A2974 RMK A01 T00740007  RH  062%=      5-min Rain = 0
KQU1 171050Z 19012KT 07/01 A2974 RMK A01 T00740007  RH  062%=      5-min Rain = 0
KQU1 171051Z 18012KT 07/01 A2974 RMK A01 T00730007  RH  063%=      5-min Rain = 0
KQU1 171052Z 18011KT 07/01 A2974 RMK A01 T00730006  RH  063%=      5-min Rain = 0
KQU1 171053Z 17009KT 07/01 A2974 RMK A01 T00720007  RH  063%=      5-min Rain = 0
KQU1 171054Z 16009KT 07/01 A2974 RMK A01 T00700007  RH  064%=      5-min Rain = 0
KQU1 171055Z 17010KT 07/01 A2974 RMK A01 T00680006  RH  065%=      5-min Rain = 0
KQU1 171056Z 17010KT 07/01 A2974 RMK A01 T00680006  RH  065%=      5-min Rain = 0
KQU1 171057Z 17010KT 07/01 A2974 RMK A01 T00670007  RH  065%=      5-min Rain = 0
KQU1 171058Z 17008KT 07/01 A2974 RMK A01 T00670006  RH  065%=      5-min Rain = 0
KQU1 171059Z 17009KT 07/01 A2974 RMK A01 T00650007  RH  066%=      5-min Rain = 0
KQU1 171100Z 17009KT 06/01 A2974 RMK A01 T00640007  RH  067%=      5-min Rain = 0
KQU1 171101Z 17009KT 06/01 A2974 RMK A01 T00630007  RH  067%=      5-min Rain = 0
KQU1 171102Z 16009KT 06/01 A2974 RMK A01 T00620008  RH  068%=      5-min Rain = 0
KQU1 171103Z 17010KT 06/01 A2974 RMK A01 T00620008  RH  068%=      5-min Rain = 0
KQU1 171104Z 16010KT 06/01 A2974 RMK A01 T00610008  RH  069%=      5-min Rain = 0
KQU1 171105Z 17010KT 06/01 A2974 RMK A01 T00610008  RH  069%=      5-min Rain = 0
KQU1 171106Z 17009KT 06/01 A2974 RMK A01 T00610008  RH  069%=      5-min Rain = 0
KQU1 171107Z 17009KT 06/01 A2974 RMK A01 T00600008  RH  069%=      5-min Rain = 0
KQU1 171108Z 17010KT 06/01 A2974 RMK A01 T00600009  RH  070%=      5-min Rain = 0
KQU1 171109Z 17010KT 06/01 A2974 RMK A01 T00600009  RH  070%=      5-min Rain = 0
KQU1 171110Z 17011KT 06/01 A2974 RMK A01 T00610009  RH  069%=      5-min Rain = 0
KQU1 171111Z 18010KT 06/01 A2974 RMK A01 T00600009  RH  070%=      5-min Rain = 0
KQU1 171112Z 18009KT 06/01 A2974 RMK A01 T00600009  RH  070%=      5-min Rain = 0
KQU1 171113Z 18010KT 06/01 A2974 RMK A01 T00590009  RH  070%=      5-min Rain = 0
KQU1 171114Z 18010KT 06/01 A2974 RMK A01 T00590009  RH  070%=      5-min Rain = 0
KQU1 171115Z 18011KT 06/01 A2974 RMK A01 T00590009  RH  070%=      5-min Rain = 0
KQU1 171116Z 18011KT 06/01 A2974 RMK A01 T00590009  RH  070%=      5-min Rain = 0
KQU1 171117Z 18010KT 06/01 A2974 RMK A01 T00590009  RH  070%=      5-min Rain = 0
KQU1 171118Z 17010KT 06/01 A2974 RMK A01 T00580009  RH  071%=      5-min Rain = 0
KQU1 171119Z 17012KT 06/01 A2974 RMK A01 T00580009  RH  071%=      5-min Rain = 0
KQU1 171120Z 17011KT 06/01 A2974 RMK A01 T00590010  RH  071%=      5-min Rain = 0
KQU1 171121Z 17013KT 06/01 A2974 RMK A01 T00580010  RH  071%=      5-min Rain = 0
KQU1 171122Z 16013KT 06/01 A2974 RMK A01 T00570010  RH  071%=      5-min Rain = 0
KQU1 171123Z 17013KT 06/01 A2974 RMK A01 T00570010  RH  072%=      5-min Rain = 0
KQU1 171124Z 17013KT 06/01 A2974 RMK A01 T00570010  RH  072%=      5-min Rain = 0
KQU1 171125Z 17013KT 06/01 A2974 RMK A01 T00570010  RH  072%=      5-min Rain = 0
KQU1 171126Z 17013KT 06/01 A2974 RMK A01 T00570010  RH  072%=      5-min Rain = 0
KQU1 171127Z 18012KT 06/01 A2974 RMK A01 T00580011  RH  072%=      5-min Rain = 0
KQU1 171128Z 19012KT 06/01 A2974 RMK A01 T00590011  RH  072%=      5-min Rain = 0
KQU1 171129Z 20013KT 06/01 A2973 RMK A01 T00590012  RH  071%=      5-min Rain = 0
KQU1 171130Z 20015KT 06/01 A2973 RMK A01 T00610011  RH  070%=      5-min Rain = 0
KQU1 171131Z 20014KT 06/01 A2973 RMK A01 T00640011  RH  069%=      5-min Rain = 0
KQU1 171132Z 20014KT 07/01 A2973 RMK A01 T00650011  RH  068%=      5-min Rain = 0
KQU1 171133Z 20013KT 07/01 A2973 RMK A01 T00660011  RH  068%=      5-min Rain = 0
KQU1 171134Z 20016KT 07/01 A2973 RMK A01 T00660011  RH  068%=      5-min Rain = 0
KQU1 171135Z 20016KT 07/01 A2973 RMK A01 T00670011  RH  067%=      5-min Rain = 0
KQU1 171136Z 20015G20KT 07/01 A2973 RMK A01 T00680011  RH  067%=      5-min Rain = 0
KQU1 171137Z 21014KT 07/01 A2973 RMK A01 T00680011  RH  067%=      5-min Rain = 0
KQU1 171138Z 20013KT 07/01 A2973 RMK A01 T00680011  RH  067%=      5-min Rain = 0
KQU1 171139Z 20013KT 07/01 A2973 RMK A01 T00660011  RH  068%=      5-min Rain = 0
KQU1 171140Z 21014KT 07/01 A2973 RMK A01 T00650011  RH  068%=      5-min Rain = 0
KQU1 171141Z 21013KT 07/01 A2973 RMK A01 T00650011  RH  068%=      5-min Rain = 0
KQU1 171142Z 21013KT 07/01 A2973 RMK A01 T00650011  RH  068%=      5-min Rain = 0
KQU1 171143Z 20014KT 07/01 A2973 RMK A01 T00660011  RH  068%=      5-min Rain = 0
KQU1 171144Z 20014KT 07/01 A2973 RMK A01 T00660011  RH  068%=      5-min Rain = 0
KQU1 171145Z 20015KT 07/01 A2973 RMK A01 T00660011  RH  068%=      5-min Rain = 0
KQU1 171146Z 20015KT 07/01 A2973 RMK A01 T00660011  RH  068%=      5-min Rain = 0
KQU1 171147Z 20014KT 07/01 A2973 RMK A01 T00650011  RH  068%=      5-min Rain = 0
KQU1 171148Z 21014KT 07/01 A2973 RMK A01 T00650011  RH  068%=      5-min Rain = 0
KQU1 171149Z 21014KT 06/01 A2973 RMK A01 T00640011  RH  068%=      5-min Rain = 0
KQU1 171150Z 21015KT 06/01 A2973 RMK A01 T00640011  RH  069%=      5-min Rain = 0
KQU1 171151Z 21016KT 07/01 A2973 RMK A01 T00650011  RH  068%=      5-min Rain = 0
KQU1 171152Z 21017KT 07/01 A2973 RMK A01 T00660011  RH  068%=      5-min Rain = 0
KQU1 171153Z 21019KT 07/01 A2973 RMK A01 T00670011  RH  067%=      5-min Rain = 0
KQU1 171154Z 21019KT 07/01 A2973 RMK A01 T00690011  RH  067%=      5-min Rain = 0
KQU1 171155Z 21018KT 07/01 A2973 RMK A01 T00690011  RH  067%=      5-min Rain = 0
KQU1 171156Z 21018KT 07/01 A2973 RMK A01 T00690011  RH  066%=      5-min Rain = 0
KQU1 171157Z 21017KT 07/01 A2973 RMK A01 T00690011  RH  067%=      5-min Rain = 0
KQU1 171158Z 21020KT 07/01 A2973 RMK A01 T00680011  RH  067%=      5-min Rain = 0
KQU1 171159Z 21021KT 07/01 A2973 RMK A01 T00690012  RH  067%=      5-min Rain = 0
KQU1 171200Z 21020G25KT 07/01 A2973 RMK A01 T00690011  RH  067%=      5-min Rain = 0
KQU1 171201Z 21020KT 07/01 A2973 RMK A01 T00680011  RH  067%=      5-min Rain = 0
KQU1 171202Z 21018KT 07/01 A2973 RMK A01 T00680012  RH  067%=      5-min Rain = 0
KQU1 171203Z 21017KT 07/01 A2973 RMK A01 T00670012  RH  068%=      5-min Rain = 0
KQU1 171204Z 21019KT 07/01 A2973 RMK A01 T00670012  RH  068%=      5-min Rain = 0
KQU1 171205Z 21020KT 07/01 A2973 RMK A01 T00660012  RH  068%=      5-min Rain = 0
KQU1 171206Z 21016KT 07/01 A2973 RMK A01 T00660012  RH  068%=      5-min Rain = 0
KQU1 171207Z 21019KT 07/01 A2972 RMK A01 T00650012  RH  069%=      5-min Rain = 0
KQU1 171208Z 21018KT 07/01 A2972 RMK A01 T00650012  RH  069%=      5-min Rain = 0
KQU1 171209Z 21017KT 07/01 A2972 RMK A01 T00650012  RH  069%=      5-min Rain = 0
KQU1 171210Z 21018KT 07/01 A2972 RMK A01 T00650012  RH  069%=      5-min Rain = 0
KQU1 171211Z 21016KT 06/01 A2972 RMK A01 T00640012  RH  069%=      5-min Rain = 0
KQU1 171212Z 21016KT 06/01 A2972 RMK A01 T00630012  RH  070%=      5-min Rain = 0
KQU1 171213Z 21016KT 06/01 A2972 RMK A01 T00630012  RH  070%=      5-min Rain = 0
KQU1 171214Z 21017KT 06/01 A2972 RMK A01 T00620012  RH  070%=      5-min Rain = 0
KQU1 171215Z 21017KT 06/01 A2972 RMK A01 T00630012  RH  070%=      5-min Rain = 0
KQU1 171216Z 21017KT 06/01 A2972 RMK A01 T00630012  RH  070%=      5-min Rain = 0
KQU1 171217Z 21016KT 06/01 A2972 RMK A01 T00620013  RH  071%=      5-min Rain = 0
KQU1 171218Z 21017KT 06/01 A2972 RMK A01 T00620013  RH  071%=      5-min Rain = 0
KQU1 171219Z 21017KT 06/01 A2972 RMK A01 T00620013  RH  071%=      5-min Rain = 0
KQU1 171220Z 21017KT 06/01 A2972 RMK A01 T00620013  RH  070%=      5-min Rain = 0
KQU1 171221Z 21017KT 06/01 A2972 RMK A01 T00630013  RH  070%=      5-min Rain = 0
KQU1 171222Z 21016KT 06/01 A2972 RMK A01 T00620013  RH  071%=      5-min Rain = 0
KQU1 171223Z 21016KT 06/01 A2972 RMK A01 T00620013  RH  071%=      5-min Rain = 0
KQU1 171224Z 21016KT 06/01 A2972 RMK A01 T00630013  RH  070%=      5-min Rain = 0
KQU1 171225Z 21018KT 06/01 A2972 RMK A01 T00640013  RH  070%=      5-min Rain = 0
KQU1 171226Z 21015G20KT 06/01 A2972 RMK A01 T00640013  RH  070%=      5-min Rain = 0
KQU1 171227Z 21014KT 06/01 A2972 RMK A01 T00630013  RH  070%=      5-min Rain = 0
KQU1 171228Z 21018KT 06/01 A2972 RMK A01 T00640013  RH  070%=      5-min Rain = 0
KQU1 171229Z 22017KT 07/01 A2972 RMK A01 T00650014  RH  070%=      5-min Rain = 0
KQU1 171230Z 21017KT 07/01 A2972 RMK A01 T00660014  RH  069%=      5-min Rain = 0
KQU1 171231Z 21016KT 07/01 A2972 RMK A01 T00660014  RH  069%=      5-min Rain = 0
KQU1 171232Z 21017G22KT 07/01 A2972 RMK A01 T00670014  RH  069%=      5-min Rain = 0
KQU1 171233Z 21017KT 07/01 A2972 RMK A01 T00670014  RH  069%=      5-min Rain = 0
KQU1 171234Z 21016KT 07/01 A2971 RMK A01 T00680014  RH  069%=      5-min Rain = 0
KQU1 171235Z 21014G19KT 07/01 A2972 RMK A01 T00670014  RH  069%=      5-min Rain = 0
KQU1 171236Z 22016KT 07/01 A2972 RMK A01 T00670014  RH  069%=      5-min Rain = 0
KQU1 171237Z 22015KT 07/01 A2972 RMK A01 T00680014  RH  069%=      5-min Rain = 0
KQU1 171238Z 22015KT 07/01 A2972 RMK A01 T00680014  RH  069%=      5-min Rain = 0
KQU1 171239Z 22015G20KT 07/01 A2972 RMK A01 T00680014  RH  068%=      5-min Rain = 0
KQU1 171240Z 21014KT 07/01 A2972 RMK A01 T00680014  RH  068%=      5-min Rain = 0
KQU1 171241Z 22014G19KT 07/01 A2972 RMK A01 T00680014  RH  068%=      5-min Rain = 0
KQU1 171242Z 22015KT 07/01 A2972 RMK A01 T00680014  RH  068%=      5-min Rain = 0
KQU1 171243Z 21013KT 07/01 A2971 RMK A01 T00680014  RH  068%=      5-min Rain = 0
KQU1 171244Z 22013KT 07/01 A2972 RMK A01 T00680014  RH  068%=      5-min Rain = 0
KQU1 171245Z 21014KT 07/01 A2971 RMK A01 T00680014  RH  068%=      5-min Rain = 0
KQU1 171246Z 22014KT 07/01 A2972 RMK A01 T00680014  RH  068%=      5-min Rain = 0
KQU1 171247Z 22014KT 07/01 A2971 RMK A01 T00680014  RH  068%=      5-min Rain = 0
KQU1 171248Z 21014KT 07/01 A2972 RMK A01 T00680014  RH  068%=      5-min Rain = 0
KQU1 171249Z 22013KT 07/01 A2971 RMK A01 T00690014  RH  068%=      5-min Rain = 0
KQU1 171250Z 21012KT 07/01 A2972 RMK A01 T00690014  RH  068%=      5-min Rain = 0
KQU1 171251Z 21013KT 07/01 A2972 RMK A01 T00690014  RH  068%=      5-min Rain = 0
KQU1 171252Z 21012KT 07/01 A2972 RMK A01 T00680014  RH  068%=      5-min Rain = 0
KQU1 171253Z 21012KT 07/01 A2972 RMK A01 T00680014  RH  068%=      5-min Rain = 0
KQU1 171254Z 22012KT 07/01 A2972 RMK A01 T00680014  RH  068%=      5-min Rain = 0
KQU1 171255Z 21013KT 07/01 A2972 RMK A01 T00680014  RH  068%=      5-min Rain = 0
KQU1 171256Z 21012KT 07/01 A2972 RMK A01 T00680014  RH  068%=      5-min Rain = 0
KQU1 171257Z 21012KT 07/01 A2972 RMK A01 T00680014  RH  068%=      5-min Rain = 0
KQU1 171258Z 20012KT 07/01 A2972 RMK A01 T00670014  RH  068%=      5-min Rain = 0
KQU1 171259Z 21013KT 07/01 A2972 RMK A01 T00680013  RH  068%=      5-min Rain = 0
KQU1 171300Z 21012KT 07/01 A2972 RMK A01 T00680013  RH  068%=      5-min Rain = 0
KQU1 171301Z 20012KT 07/01 A2972 RMK A01 T00680014  RH  068%=      5-min Rain = 0
KQU1 171302Z 21013KT 07/01 A2972 RMK A01 T00670013  RH  068%=      5-min Rain = 0
KQU1 171303Z 21012KT 07/01 A2972 RMK A01 T00670013  RH  069%=      5-min Rain = 0
KQU1 171304Z 21012KT 07/01 A2972 RMK A01 T00670013  RH  068%=      5-min Rain = 0
KQU1 171305Z 21012KT 07/01 A2972 RMK A01 T00670013  RH  068%=      5-min Rain = 0
KQU1 171306Z 21012KT 07/01 A2972 RMK A01 T00670013  RH  068%=      5-min Rain = 0
KQU1 171307Z 21011KT 07/01 A2972 RMK A01 T00670012  RH  068%=      5-min Rain = 0
KQU1 171308Z 21013KT 07/01 A2972 RMK A01 T00670012  RH  068%=      5-min Rain = 0
KQU1 171309Z 21012KT 07/01 A2972 RMK A01 T00670012  RH  068%=      5-min Rain = 0
KQU1 171310Z 21013KT 07/01 A2972 RMK A01 T00670012  RH  068%=      5-min Rain = 0
KQU1 171311Z 21011KT 07/01 A2972 RMK A01 T00680012  RH  068%=      5-min Rain = 0
KQU1 171312Z 21012KT 07/01 A2972 RMK A01 T00670012  RH  068%=      5-min Rain = 0
KQU1 171313Z 21013KT 07/01 A2972 RMK A01 T00680012  RH  068%=      5-min Rain = 0
KQU1 171314Z 21012KT 07/01 A2972 RMK A01 T00680012  RH  067%=      5-min Rain = 0
KQU1 171315Z 21012KT 07/01 A2972 RMK A01 T00680012  RH  068%=      5-min Rain = 0
KQU1 171316Z 21013KT 07/01 A2972 RMK A01 T00680012  RH  068%=      5-min Rain = 0
KQU1 171317Z 21013KT 07/01 A2972 RMK A01 T00670012  RH  068%=      5-min Rain = 0
KQU1 171318Z 21012KT 07/01 A2972 RMK A01 T00670012  RH  068%=      5-min Rain = 0
KQU1 171319Z 21013KT 07/01 A2972 RMK A01 T00670012  RH  068%=      5-min Rain = 0
KQU1 171320Z 21013KT 07/01 A2972 RMK A01 T00660012  RH  068%=      5-min Rain = 0
KQU1 171321Z 21013KT 07/01 A2972 RMK A01 T00660012  RH  069%=      5-min Rain = 0
KQU1 171322Z 21013KT 07/01 A2971 RMK A01 T00650012  RH  069%=      5-min Rain = 0
KQU1 171323Z 21012KT 07/01 A2971 RMK A01 T00650012  RH  069%=      5-min Rain = 0
KQU1 171324Z 21012KT 06/01 A2971 RMK A01 T00640012  RH  069%=      5-min Rain = 0
KQU1 171325Z 21013KT 06/01 A2971 RMK A01 T00640012  RH  070%=      5-min Rain = 0
KQU1 171326Z 21012KT 06/01 A2971 RMK A01 T00630012  RH  070%=      5-min Rain = 0
KQU1 171327Z 21014KT 06/01 A2971 RMK A01 T00630012  RH  070%=      5-min Rain = 0
KQU1 171328Z 21013KT 06/01 A2971 RMK A01 T00630012  RH  070%=      5-min Rain = 0
KQU1 171329Z 21013KT 06/01 A2971 RMK A01 T00630012  RH  070%=      5-min Rain = 0
KQU1 171330Z 21013KT 06/01 A2971 RMK A01 T00630012  RH  070%=      5-min Rain = 0
KQU1 171331Z 21014KT 06/01 A2971 RMK A01 T00630012  RH  070%=      5-min Rain = 0
KQU1 171332Z 21014KT 06/01 A2971 RMK A01 T00630012  RH  070%=      5-min Rain = 0
KQU1 171333Z 21013KT 06/01 A2971 RMK A01 T00630012  RH  070%=      5-min Rain = 0
KQU1 171334Z 21014KT 06/01 A2971 RMK A01 T00630012  RH  070%=      5-min Rain = 0
KQU1 171335Z 21014KT 06/01 A2971 RMK A01 T00640012  RH  069%=      5-min Rain = 0
KQU1 171336Z 21014KT 06/01 A2971 RMK A01 T00640012  RH  069%=      5-min Rain = 0
KQU1 171337Z 21013KT 06/01 A2971 RMK A01 T00640012  RH  069%=      5-min Rain = 0
KQU1 171338Z 21013KT 06/01 A2971 RMK A01 T00640012  RH  069%=      5-min Rain = 0
KQU1 171339Z 21013KT 06/01 A2971 RMK A01 T00640012  RH  069%=      5-min Rain = 0
KQU1 171340Z 21014KT 06/01 A2971 RMK A01 T00640012  RH  069%=      5-min Rain = 0
KQU1 171341Z 21013KT 07/01 A2971 RMK A01 T00650012  RH  069%=      5-min Rain = 0
KQU1 171342Z 21013KT 07/01 A2971 RMK A01 T00650012  RH  069%=      5-min Rain = 0
KQU1 171343Z 21013KT 07/01 A2971 RMK A01 T00650012  RH  069%=      5-min Rain = 0
KQU1 171344Z 21013KT 07/01 A2971 RMK A01 T00660012  RH  068%=      5-min Rain = 0
KQU1 171345Z 21013KT 07/01 A2971 RMK A01 T00660011  RH  068%=      5-min Rain = 0
KQU1 171346Z 21013KT 07/01 A2971 RMK A01 T00670011  RH  068%=      5-min Rain = 0
KQU1 171347Z 21013KT 07/01 A2971 RMK A01 T00670011  RH  067%=      5-min Rain = 0
KQU1 171348Z 21013KT 07/01 A2971 RMK A01 T00680011  RH  067%=      5-min Rain = 0
KQU1 171349Z 21013KT 07/01 A2971 RMK A01 T00680011  RH  067%=      5-min Rain = 0
KQU1 171350Z 21013KT 07/01 A2971 RMK A01 T00690011  RH  067%=      5-min Rain = 0
KQU1 171351Z 21014KT 07/01 A2971 RMK A01 T00700011  RH  066%=      5-min Rain = 0
KQU1 171352Z 22012KT 07/01 A2971 RMK A01 T00710011  RH  065%=      5-min Rain = 0
KQU1 171353Z 21011KT 07/01 A2971 RMK A01 T00710011  RH  066%=      5-min Rain = 0
KQU1 171354Z 21012KT 07/01 A2971 RMK A01 T00710011  RH  065%=      5-min Rain = 0
KQU1 171355Z 21011KT 07/01 A2971 RMK A01 T00720011  RH  065%=      5-min Rain = 0
KQU1 171356Z 21011KT 07/01 A2971 RMK A01 T00720011  RH  065%=      5-min Rain = 0
KQU1 171357Z 21010KT 07/01 A2971 RMK A01 T00730011  RH  065%=      5-min Rain = 0
KQU1 171358Z 22011KT 07/01 A2971 RMK A01 T00730010  RH  065%=      5-min Rain = 0
KQU1 171359Z 21011KT 07/01 A2971 RMK A01 T00730011  RH  064%=      5-min Rain = 0
KQU1 171400Z 21013KT 07/01 A2971 RMK A01 T00740010  RH  064%=      5-min Rain = 0
KQU1 171401Z 21012KT 08/01 A2971 RMK A01 T00750010  RH  063%=      5-min Rain = 0
KQU1 171402Z 21012KT 08/01 A2971 RMK A01 T00760010  RH  063%=      5-min Rain = 0
KQU1 171403Z 21012KT 08/01 A2971 RMK A01 T00760010  RH  063%=      5-min Rain = 0
KQU1 171404Z 21012KT 08/01 A2971 RMK A01 T00770009  RH  062%=      5-min Rain = 0
KQU1 171405Z 20012KT 08/01 A2971 RMK A01 T00780010  RH  062%=      5-min Rain = 0
KQU1 171406Z 20011KT 08/01 A2971 RMK A01 T00780011  RH  062%=      5-min Rain = 0
KQU1 171407Z 20012KT 08/01 A2971 RMK A01 T00780011  RH  063%=      5-min Rain = 0
KQU1 171408Z 20011KT 08/01 A2971 RMK A01 T00780011  RH  063%=      5-min Rain = 0
KQU1 171409Z 20011KT 08/01 A2971 RMK A01 T00780011  RH  062%=      5-min Rain = 0
KQU1 171410Z 20011KT 08/01 A2971 RMK A01 T00780011  RH  062%=      5-min Rain = 0
KQU1 171411Z 20011KT 08/01 A2972 RMK A01 T00780011  RH  063%=      5-min Rain = 0
KQU1 171412Z 20010KT 08/01 A2972 RMK A01 T00780011  RH  063%=      5-min Rain = 0
KQU1 171413Z 20010KT 08/01 A2972 RMK A01 T00780011  RH  063%=      5-min Rain = 0
KQU1 171414Z 20011KT 08/01 A2972 RMK A01 T00780011  RH  062%=      5-min Rain = 0
KQU1 171415Z 21011KT 08/01 A2972 RMK A01 T00800010  RH  061%=      5-min Rain = 0
KQU1 171416Z 21012KT 08/01 A2972 RMK A01 T00810009  RH  060%=      5-min Rain = 0
KQU1 171417Z 20010KT 08/01 A2972 RMK A01 T00820010  RH  060%=      5-min Rain = 0
KQU1 171418Z 20010KT 08/01 A2972 RMK A01 T00830010  RH  060%=      5-min Rain = 0
KQU1 171419Z 20011KT 08/01 A2972 RMK A01 T00840010  RH  060%=      5-min Rain = 0
KQU1 171420Z 20011KT 09/01 A2972 RMK A01 T00850010  RH  060%=      5-min Rain = 0
KQU1 171421Z 20011KT 09/01 A2972 RMK A01 T00850010  RH  059%=      5-min Rain = 0
KQU1 171422Z 21013KT 09/01 A2972 RMK A01 T00850010  RH  059%=      5-min Rain = 0
KQU1 171423Z 20014KT 09/01 A2972 RMK A01 T00860009  RH  059%=      5-min Rain = 0
KQU1 171424Z 20013KT 09/01 A2972 RMK A01 T00860010  RH  059%=      5-min Rain = 0
KQU1 171425Z 21014KT 09/01 A2972 RMK A01 T00860009  RH  058%=      5-min Rain = 0
KQU1 171426Z 21012KT 09/01 A2972 RMK A01 T00860010  RH  059%=      5-min Rain = 0
KQU1 171427Z 21010KT 09/01 A2972 RMK A01 T00860011  RH  059%=      5-min Rain = 0
KQU1 171428Z 21010KT 09/01 A2972 RMK A01 T00860012  RH  059%=      5-min Rain = 0
KQU1 171429Z 20010KT 09/01 A2973 RMK A01 T00870013  RH  060%=      5-min Rain = 0
KQU1 171430Z 21013KT 09/01 A2973 RMK A01 T00870011  RH  059%=      5-min Rain = 0
KQU1 171431Z 21012KT 09/01 A2973 RMK A01 T00870011  RH  059%=      5-min Rain = 0
KQU1 171432Z 20010KT 09/01 A2973 RMK A01 T00880013  RH  059%=      5-min Rain = 0
KQU1 171433Z 20010KT 09/01 A2973 RMK A01 T00880013  RH  059%=      5-min Rain = 0
KQU1 171434Z 20012KT 09/01 A2973 RMK A01 T00890011  RH  058%=      5-min Rain = 0
KQU1 171435Z 20014KT 09/01 A2973 RMK A01 T00890010  RH  058%=      5-min Rain = 0
KQU1 171436Z 20011KT 09/01 A2973 RMK A01 T00890012  RH  058%=      5-min Rain = 0
KQU1 171437Z 20012KT 09/01 A2973 RMK A01 T00900012  RH  058%=      5-min Rain = 0
KQU1 171438Z 20013KT 09/01 A2973 RMK A01 T00900011  RH  058%=      5-min Rain = 0
KQU1 171439Z 20013KT 09/01 A2973 RMK A01 T00900011  RH  058%=      5-min Rain = 0
KQU1 171440Z 20011KT 09/01 A2973 RMK A01 T00900012  RH  058%=      5-min Rain = 0
KQU1 171441Z 20013KT 09/01 A2973 RMK A01 T00910012  RH  058%=      5-min Rain = 0
KQU1 171442Z 21014KT 09/01 A2973 RMK A01 T00910012  RH  058%=      5-min Rain = 0
KQU1 171443Z 21015KT 09/01 A2973 RMK A01 T00910010  RH  057%=      5-min Rain = 0
KQU1 171444Z 21016KT 09/01 A2973 RMK A01 T00910011  RH  057%=      5-min Rain = 0
KQU1 171445Z 21014KT 09/01 A2973 RMK A01 T00910011  RH  057%=      5-min Rain = 0
KQU1 171446Z 21014KT 09/01 A2973 RMK A01 T00920012  RH  058%=      5-min Rain = 0
KQU1 171447Z 21012KT 09/01 A2973 RMK A01 T00930013  RH  057%=      5-min Rain = 0
KQU1 171448Z 21012KT 09/01 A2973 RMK A01 T00940013  RH  057%=      5-min Rain = 0
KQU1 171449Z 21011KT 09/01 A2973 RMK A01 T00940013  RH  057%=      5-min Rain = 0
KQU1 171450Z 21012KT 10/01 A2973 RMK A01 T00950013  RH  056%=      5-min Rain = 0
KQU1 171451Z 21015KT 10/01 A2973 RMK A01 T00960011  RH  055%=      5-min Rain = 0
KQU1 171452Z 22013KT 10/01 A2973 RMK A01 T00970011  RH  055%=      5-min Rain = 0
KQU1 171453Z 21013KT 10/01 A2973 RMK A01 T00970010  RH  055%=      5-min Rain = 0
KQU1 171454Z 22014KT 10/01 A2973 RMK A01 T00980011  RH  055%=      5-min Rain = 0
KQU1 171455Z 21014KT 10/01 A2973 RMK A01 T00980011  RH  055%=      5-min Rain = 0
KQU1 171456Z 22014KT 10/01 A2973 RMK A01 T00980011  RH  055%=      5-min Rain = 0
KQU1 171457Z 22014KT 10/01 A2973 RMK A01 T00980010  RH  054%=      5-min Rain = 0
KQU1 171458Z 21015KT 10/01 A2973 RMK A01 T00990010  RH  054%=      5-min Rain = 0
KQU1 171459Z 22014KT 10/01 A2973 RMK A01 T00990011  RH  054%=      5-min Rain = 0
KQU1 171500Z 21014G20KT 10/01 A2973 RMK A01 T01000010  RH  054%=      5-min Rain = 0
KQU1 171501Z 21015KT 10/01 A2973 RMK A01 T01000010  RH  053%=      5-min Rain = 0
KQU1 171502Z 21013KT 10/01 A2973 RMK A01 T01000011  RH  054%=      5-min Rain = 0
KQU1 171503Z 22016G21KT 10/01 A2973 RMK A01 T01010010  RH  053%=      5-min Rain = 0
KQU1 171504Z 21015G20KT 10/01 A2973 RMK A01 T01020008  RH  052%=      5-min Rain = 0
KQU1 171505Z 21014KT 10/01 A2973 RMK A01 T01030011  RH  053%=      5-min Rain = 0
KQU1 171506Z 22012G17KT 10/01 A2973 RMK A01 T01040011  RH  053%=      5-min Rain = 0
KQU1 171507Z 22011KT 11/01 A2973 RMK A01 T01050014  RH  053%=      5-min Rain = 0
KQU1 171508Z 22013KT 11/01 A2973 RMK A01 T01060010  RH  052%=      5-min Rain = 0
KQU1 171509Z 22012KT 11/01 A2973 RMK A01 T01060011  RH  052%=      5-min Rain = 0
KQU1 171510Z 22012G18KT 11/01 A2973 RMK A01 T01070010  RH  051%=      5-min Rain = 0
KQU1 171511Z 22015KT 11/01 A2973 RMK A01 T01080009  RH  050%=      5-min Rain = 0
KQU1 171512Z 22014KT 11/01 A2973 RMK A01 T01090008  RH  050%=      5-min Rain = 0
KQU1 171513Z 22014KT 11/01 A2973 RMK A01 T01100007  RH  049%=      5-min Rain = 0
KQU1 171514Z 23015KT 11/01 A2973 RMK A01 T01100008  RH  049%=      5-min Rain = 0
KQU1 171515Z 22014KT 11/01 A2973 RMK A01 T01110010  RH  050%=      5-min Rain = 0
KQU1 171516Z 23014KT 11/01 A2973 RMK A01 T01120008  RH  048%=      5-min Rain = 0
KQU1 171517Z 23014KT 11/01 A2973 RMK A01 T01130009  RH  049%=      5-min Rain = 0
KQU1 171518Z 23012KT 12/01 A2973 RMK A01 T01150008  RH  048%=      5-min Rain = 0
KQU1 171519Z 23013KT 12/01 A2973 RMK A01 T01160008  RH  048%=      5-min Rain = 0
KQU1 171520Z 24012KT 12/01 A2973 RMK A01 T01160010  RH  048%=      5-min Rain = 0
KQU1 171521Z 24013KT 12/01 A2973 RMK A01 T01170009  RH  047%=      5-min Rain = 0
KQU1 171522Z 23015KT 12/01 A2973 RMK A01 T01170008  RH  047%=      5-min Rain = 0
KQU1 171523Z 23013KT 12/01 A2973 RMK A01 T01160009  RH  048%=      5-min Rain = 0
KQU1 171524Z 24015KT 12/01 A2973 RMK A01 T01170008  RH  047%=      5-min Rain = 0
KQU1 171525Z 23012KT 12/01 A2973 RMK A01 T01170010  RH  048%=      5-min Rain = 0
KQU1 171526Z 23014G19KT 12/01 A2973 RMK A01 T01180008  RH  047%=      5-min Rain = 0
KQU1 171527Z 23017KT 12/01 A2973 RMK A01 T01190006  RH  046%=      5-min Rain = 0
KQU1 171528Z 23017KT 12/01 A2973 RMK A01 T01180005  RH  046%=      5-min Rain = 0
KQU1 171529Z 23017KT 12/01 A2973 RMK A01 T01190005  RH  046%=      5-min Rain = 0
KQU1 171530Z 23016KT 12/00 A2973 RMK A01 T01190004  RH  045%=      5-min Rain = 0
KQU1 171531Z 22015KT 12/01 A2973 RMK A01 T01200006  RH  045%=      5-min Rain = 0
KQU1 171532Z 22013G18KT 12/01 A2973 RMK A01 T01220006  RH  045%=      5-min Rain = 0
KQU1 171533Z 22013KT 12/01 A2973 RMK A01 T01230007  RH  045%=      5-min Rain = 0
KQU1 171534Z 23015KT 12/01 A2973 RMK A01 T01240005  RH  044%=      5-min Rain = 0
KQU1 171535Z 23015KT 13/01 A2973 RMK A01 T01250006  RH  044%=      5-min Rain = 0
KQU1 171536Z 23014KT 13/01 A2973 RMK A01 T01250006  RH  044%=      5-min Rain = 0
KQU1 171537Z 22011KT 13/01 A2973 RMK A01 T01260010  RH  045%=      5-min Rain = 0
KQU1 171538Z 22016KT 13/01 A2973 RMK A01 T01270006  RH  044%=      5-min Rain = 0
KQU1 171539Z 22015KT 13/01 A2973 RMK A01 T01260006  RH  044%=      5-min Rain = 0
KQU1 171540Z 22014KT 13/01 A2973 RMK A01 T01260006  RH  044%=      5-min Rain = 0
KQU1 171541Z 22013KT 13/01 A2973 RMK A01 T01260008  RH  044%=      5-min Rain = 0
KQU1 171542Z 22013KT 13/01 A2973 RMK A01 T01270009  RH  044%=      5-min Rain = 0
KQU1 171543Z 23014KT 13/01 A2973 RMK A01 T01270007  RH  044%=      5-min Rain = 0
KQU1 171544Z 22012KT 13/01 A2973 RMK A01 T01270009  RH  044%=      5-min Rain = 0
KQU1 171545Z 22013KT 13/01 A2973 RMK A01 T01280009  RH  044%=      5-min Rain = 0
KQU1 171546Z 22013KT 13/01 A2973 RMK A01 T01290009  RH  044%=      5-min Rain = 0
KQU1 171547Z 22014KT 13/01 A2973 RMK A01 T01290007  RH  043%=      5-min Rain = 0
KQU1 171548Z 22016KT 13/01 A2973 RMK A01 T01280007  RH  043%=      5-min Rain = 0
KQU1 171549Z 23016KT 13/01 A2973 RMK A01 T01280007  RH  044%=      5-min Rain = 0
KQU1 171550Z 23014KT 13/01 A2973 RMK A01 T01280006  RH  043%=      5-min Rain = 0
KQU1 171551Z 22013G18KT 13/01 A2973 RMK A01 T01290008  RH  044%=      5-min Rain = 0
KQU1 171552Z 22016KT 13/00 A2973 RMK A01 T01300004  RH  042%=      5-min Rain = 0
KQU1 171553Z 22013KT 13/01 A2973 RMK A01 T01310007  RH  043%=      5-min Rain = 0
KQU1 171554Z 22015KT 13/01 A2973 RMK A01 T01320005  RH  042%=      5-min Rain = 0
KQU1 171555Z 22015KT 13/01 A2973 RMK A01 T01320005  RH  042%=      5-min Rain = 0
KQU1 171556Z 22016KT 13/01 A2973 RMK A01 T01320005  RH  042%=      5-min Rain = 0
KQU1 171557Z 22013KT 13/01 A2973 RMK A01 T01320007  RH  042%=      5-min Rain = 0
KQU1 171558Z 22015KT 13/01 A2973 RMK A01 T01330006  RH  042%=      5-min Rain = 0
KQU1 171559Z 22014KT 13/01 A2973 RMK A01 T01330005  RH  042%=      5-min Rain = 0
KQU1 171600Z 22012KT 13/01 A2973 RMK A01 T01330007  RH  042%=      5-min Rain = 0
KQU1 171601Z 22010KT 14/01 A2973 RMK A01 T01350011  RH  043%=      5-min Rain = 0
KQU1 171602Z 22013KT 14/01 A2973 RMK A01 T01370009  RH  042%=      5-min Rain = 0
KQU1 171603Z 23014KT 14/01 A2973 RMK A01 T01370005  RH  041%=      5-min Rain = 0
KQU1 171604Z 22015KT 14/00 A2973 RMK A01 T01360004  RH  040%=      5-min Rain = 0
KQU1 171605Z 23013KT 14/01 A2973 RMK A01 T01370006  RH  041%=      5-min Rain = 0
KQU1 171606Z 23014KT 14/01 A2973 RMK A01 T01370005  RH  040%=      5-min Rain = 0
KQU1 171607Z 23014KT 14/00 A2973 RMK A01 T01360004  RH  040%=      5-min Rain = 0
KQU1 171608Z 22014KT 14/01 A2973 RMK A01 T01370005  RH  041%=      5-min Rain = 0
KQU1 171609Z 22011KT 14/01 A2973 RMK A01 T01370009  RH  042%=      5-min Rain = 0
KQU1 171610Z 22013KT 14/01 A2973 RMK A01 T01380008  RH  041%=      5-min Rain = 0
KQU1 171611Z 23013KT 14/01 A2972 RMK A01 T01380006  RH  041%=      5-min Rain = 0
KQU1 171612Z 23013KT 14/01 A2972 RMK A01 T01390009  RH  041%=      5-min Rain = 0
KQU1 171613Z 22012KT 14/01 A2972 RMK A01 T01390009  RH  041%=      5-min Rain = 0
KQU1 171614Z 22013KT 14/01 A2972 RMK A01 T01400009  RH  041%=      5-min Rain = 0
KQU1 171615Z 22013KT 14/01 A2972 RMK A01 T01400009  RH  041%=      5-min Rain = 0
KQU1 171616Z 22012KT 14/01 A2972 RMK A01 T01400010  RH  041%=      5-min Rain = 0
KQU1 171617Z 22013KT 14/01 A2972 RMK A01 T01410012  RH  042%=      5-min Rain = 0
KQU1 171618Z 22012KT 14/01 A2972 RMK A01 T01410008  RH  040%=      5-min Rain = 0
KQU1 171619Z 23012KT 14/01 A2972 RMK A01 T01430011  RH  041%=      5-min Rain = 0
KQU1 171620Z 23013KT 14/01 A2972 RMK A01 T01430008  RH  040%=      5-min Rain = 0
KQU1 171621Z 23014KT 14/01 A2972 RMK A01 T01430007  RH  040%=      5-min Rain = 0
KQU1 171622Z 23013KT 14/01 A2972 RMK A01 T01430009  RH  040%=      5-min Rain = 0
KQU1 171623Z 23013KT 14/01 A2972 RMK A01 T01440009  RH  040%=      5-min Rain = 0
KQU1 171624Z 23013KT 14/01 A2972 RMK A01 T01440009  RH  040%=      5-min Rain = 0
KQU1 171625Z 23013KT 15/01 A2972 RMK A01 T01450008  RH  039%=      5-min Rain = 0
KQU1 171626Z 23010KT 15/01 A2972 RMK A01 T01460011  RH  040%=      5-min Rain = 0
KQU1 171627Z 23010KT 15/01 A2972 RMK A01 T01470011  RH  040%=      5-min Rain = 0
KQU1 171628Z 22009KT 15/02 A2972 RMK A01 T01480015  RH  040%=      5-min Rain = 0
KQU1 171629Z 21013KT 15/01 A2972 RMK A01 T01490009  RH  039%=      5-min Rain = 0
KQU1 171630Z 22010KT 15/01 A2972 RMK A01 T01470011  RH  040%=      5-min Rain = 0
KQU1 171631Z 22010KT 15/02 A2972 RMK A01 T01490015  RH  040%=      5-min Rain = 0
KQU1 171632Z 21012KT 15/01 A2972 RMK A01 T01500013  RH  039%=      5-min Rain = 0
KQU1 171633Z 21013KT 15/01 A2972 RMK A01 T01490011  RH  039%=      5-min Rain = 0
KQU1 171634Z 22011KT 15/01 A2972 RMK A01 T01480012  RH  040%=      5-min Rain = 0
KQU1 171635Z 22011KT 15/01 A2972 RMK A01 T01480013  RH  040%=      5-min Rain = 0
KQU1 171636Z 22010KT 15/01 A2972 RMK A01 T01500013  RH  040%=      5-min Rain = 0
KQU1 171637Z 21009KT 15/01 A2972 RMK A01 T01500014  RH  040%=      5-min Rain = 0
KQU1 171638Z 20012KT 15/01 A2972 RMK A01 T01510013  RH  039%=      5-min Rain = 0
KQU1 171639Z 20011KT 15/01 A2972 RMK A01 T01500010  RH  039%=      5-min Rain = 0
KQU1 171640Z 19011KT 15/01 A2972 RMK A01 T01500012  RH  039%=      5-min Rain = 0
KQU1 171641Z 20012KT 15/01 A2972 RMK A01 T01490011  RH  039%=      5-min Rain = 0
KQU1 171642Z 21010KT 15/01 A2972 RMK A01 T01490013  RH  040%=      5-min Rain = 0
KQU1 171643Z 21009KT 15/01 A2972 RMK A01 T01500012  RH  039%=      5-min Rain = 0
KQU1 171644Z 21010KT 15/02 A2972 RMK A01 T01510015  RH  040%=      5-min Rain = 0
KQU1 171645Z 21010KT 15/01 A2972 RMK A01 T01500013  RH  039%=      5-min Rain = 0
KQU1 171646Z 20009KT 15/02 A2972 RMK A01 T01510015  RH  040%=      5-min Rain = 0
KQU1 171647Z 22008KT 15/02 A2972 RMK A01 T01520019  RH  041%=      5-min Rain = 0
KQU1 171648Z 21008KT 15/02 A2972 RMK A01 T01540018  RH  040%=      5-min Rain = 0
KQU1 171649Z 21006KT 16/02 A2972 RMK A01 T01550016  RH  039%=      5-min Rain = 0
KQU1 171650Z 21009KT 16/02 A2972 RMK A01 T01560018  RH  039%=      5-min Rain = 0
KQU1 171651Z 20008KT 16/02 A2972 RMK A01 T01560016  RH  039%=      5-min Rain = 0
KQU1 171652Z 21008KT 16/02 A2972 RMK A01 T01560015  RH  038%=      5-min Rain = 0
KQU1 171653Z 21008KT 16/01 A2972 RMK A01 T01560013  RH  038%=      5-min Rain = 0
KQU1 171654Z 21008KT 16/02 A2972 RMK A01 T01560018  RH  039%=      5-min Rain = 0
KQU1 171655Z 20008KT 16/01 A2971 RMK A01 T01570013  RH  038%=      5-min Rain = 0
KQU1 171656Z 21009KT 16/01 A2971 RMK A01 T01580014  RH  038%=      5-min Rain = 0
KQU1 171657Z 20010KT 16/02 A2971 RMK A01 T01590017  RH  038%=      5-min Rain = 0
KQU1 171658Z 19010KT 16/01 A2972 RMK A01 T01600014  RH  037%=      5-min Rain = 0
KQU1 171659Z 21009KT 16/01 A2972 RMK A01 T01600014  RH  037%=      5-min Rain = 0
KQU1 171700Z 21007KT 16/01 A2972 RMK A01 T01600011  RH  036%=      5-min Rain = 0
KQU1 171701Z 19008KT 16/01 A2972 RMK A01 T01610012  RH  037%=      5-min Rain = 0
KQU1 171702Z 19012KT 16/02 A2972 RMK A01 T01610015  RH  037%=      5-min Rain = 0
KQU1 171703Z 19012KT 16/01 A2972 RMK A01 T01610014  RH  037%=      5-min Rain = 0
KQU1 171704Z 20010KT 16/02 A2972 RMK A01 T01600015  RH  038%=      5-min Rain = 0
KQU1 171705Z 19010KT 16/02 A2972 RMK A01 T01610016  RH  037%=      5-min Rain = 0
KQU1 171706Z 19010KT 16/01 A2972 RMK A01 T01610014  RH  037%=      5-min Rain = 0
KQU1 171707Z 20009KT 16/01 A2972 RMK A01 T01610014  RH  037%=      5-min Rain = 0
KQU1 171708Z 20008KT 16/01 A2972 RMK A01 T01610013  RH  037%=      5-min Rain = 0
KQU1 171709Z 19007KT 16/02 A2972 RMK A01 T01620016  RH  037%=      5-min Rain = 0
KQU1 171710Z 20008KT 16/01 A2972 RMK A01 T01640013  RH  036%=      5-min Rain = 0
KQU1 171711Z 20009KT 17/01 A2972 RMK A01 T01650012  RH  036%=      5-min Rain = 0
KQU1 171712Z 19011KT 17/01 A2972 RMK A01 T01650012  RH  035%=      5-min Rain = 0
KQU1 171713Z 19010KT 17/01 A2972 RMK A01 T01660011  RH  035%=      5-min Rain = 0
KQU1 171714Z 20009KT 16/01 A2972 RMK A01 T01640008  RH  035%=      5-min Rain = 0
KQU1 171715Z 19009KT 17/02 A2972 RMK A01 T01660017  RH  037%=      5-min Rain = 0
KQU1 171716Z 18008KT 17/01 A2972 RMK A01 T01650011  RH  035%=      5-min Rain = 0
KQU1 171717Z 17008KT 17/01 A2972 RMK A01 T01650014  RH  036%=      5-min Rain = 0
KQU1 171718Z 18008KT 17/02 A2972 RMK A01 T01660018  RH  037%=      5-min Rain = 0
KQU1 171719Z 19006KT 17/02 A2972 RMK A01 T01670016  RH  036%=      5-min Rain = 0
KQU1 171720Z 20007KT 17/01 A2972 RMK A01 T01680012  RH  035%=      5-min Rain = 0
KQU1 171721Z 17009KT 17/02 A2972 RMK A01 T01680017  RH  036%=      5-min Rain = 0
KQU1 171722Z 17006KT 17/02 A2972 RMK A01 T01680015  RH  035%=      5-min Rain = 0
KQU1 171723Z 17008KT 17/02 A2972 RMK A01 T01690016  RH  035%=      5-min Rain = 0
KQU1 171724Z 16009KT 17/02 A2972 RMK A01 T01700017  RH  036%=      5-min Rain = 0
KQU1 171725Z 17010KT 17/02 A2972 RMK A01 T01720017  RH  035%=      5-min Rain = 0
KQU1 171726Z 18010KT 17/02 A2972 RMK A01 T01720018  RH  035%=      5-min Rain = 0
KQU1 171727Z 18009KT 17/01 A2971 RMK A01 T01730014  RH  034%=      5-min Rain = 0
KQU1 171728Z 18007KT 17/01 A2971 RMK A01 T01720012  RH  034%=      5-min Rain = 0
KQU1 171729Z 19009KT 17/02 A2971 RMK A01 T01720016  RH  035%=      5-min Rain = 0
KQU1 171730Z 19009KT 17/01 A2971 RMK A01 T01720012  RH  034%=      5-min Rain = 0
KQU1 171731Z 20008KT 17/02 A2971 RMK A01 T01720015  RH  035%=      5-min Rain = 0
KQU1 171732Z 17010KT 17/01 A2971 RMK A01 T01720012  RH  034%=      5-min Rain = 0
KQU1 171733Z 17010KT 17/01 A2971 RMK A01 T01720013  RH  034%=      5-min Rain = 0
KQU1 171734Z 18010KT 17/01 A2971 RMK A01 T01730010  RH  033%=      5-min Rain = 0
KQU1 171735Z 18011KT 17/01 A2971 RMK A01 T01730011  RH  034%=      5-min Rain = 0
KQU1 171736Z 17010KT 17/01 A2971 RMK A01 T01730010  RH  034%=      5-min Rain = 0
KQU1 171737Z 17009KT 17/01 A2971 RMK A01 T01730014  RH  034%=      5-min Rain = 0
KQU1 171738Z 18008KT 18/01 A2971 RMK A01 T01750011  RH  033%=      5-min Rain = 0
KQU1 171739Z 20009KT 18/02 A2971 RMK A01 T01760017  RH  034%=      5-min Rain = 0
KQU1 171740Z 19011KT 18/01 A2971 RMK A01 T01770011  RH  033%=      5-min Rain = 0
KQU1 171741Z 19010KT 18/02 A2971 RMK A01 T01770018  RH  034%=      5-min Rain = 0
KQU1 171742Z 18008KT 18/02 A2971 RMK A01 T01790020  RH  034%=      5-min Rain = 0
KQU1 171743Z 18008KT 18/02 A2971 RMK A01 T01800016  RH  033%=      5-min Rain = 0
KQU1 171744Z 16009KT 18/01 A2971 RMK A01 T01810013  RH  033%=      5-min Rain = 0
KQU1 171745Z 16009KT 18/01 A2971 RMK A01 T01810013  RH  032%=      5-min Rain = 0
KQU1 171746Z 18009KT 18/02 A2971 RMK A01 T01820016  RH  033%=      5-min Rain = 0
KQU1 171747Z 18010KT 18/01 A2971 RMK A01 T01820014  RH  032%=      5-min Rain = 0
KQU1 171748Z 18010KT 18/01 A2971 RMK A01 T01830012  RH  032%=      5-min Rain = 0
KQU1 171749Z 18009KT 18/01 A2971 RMK A01 T01820012  RH  032%=      5-min Rain = 0
KQU1 171750Z 17011KT 18/01 A2971 RMK A01 T01820008  RH  031%=      5-min Rain = 0
KQU1 171751Z 17012KT 18/01 A297 RMK A01 T01820012  RH  032%=      5-min Rain = 0
KQU1 171752Z 18011KT 18/01 A297 RMK A01 T01830014  RH  032%=      5-min Rain = 0
KQU1 171753Z 18011KT 18/01 A297 RMK A01 T01830011  RH  031%=      5-min Rain = 0
KQU1 171754Z 15009KT 18/01 A297 RMK A01 T01820014  RH  032%=      5-min Rain = 0
KQU1 171755Z 17008KT 18/02 A297 RMK A01 T01840015  RH  032%=      5-min Rain = 0
KQU1 171756Z 16009KT 19/02 A297 RMK A01 T01850016  RH  032%=      5-min Rain = 0
KQU1 171757Z 16008KT 19/01 A297 RMK A01 T01860011  RH  031%=      5-min Rain = 0
KQU1 171758Z 17008KT 19/01 A297 RMK A01 T01850013  RH  031%=      5-min Rain = 0
KQU1 171759Z 17008KT 19/01 A297 RMK A01 T01860013  RH  031%=      5-min Rain = 0
KQU1 171800Z 18009KT 19/02 A297 RMK A01 T01880016  RH  032%=      5-min Rain = 0
KQU1 171801Z 18009KT 19/01 A297 RMK A01 T01890007  RH  029%=      5-min Rain = 0
KQU1 171802Z 18008KT 19/00 A297 RMK A01 T01870003  RH  029%=      5-min Rain = 0
KQU1 171803Z 19006KT 19/01 A297 RMK A01 T01870007  RH  030%=      5-min Rain = 0
KQU1 171804Z 19009G14KT 19/01 A297 RMK A01 T01890011  RH  030%=      5-min Rain = 0
KQU1 171805Z 19012KT 19/01 A297 RMK A01 T01910005  RH  029%=      5-min Rain = 0
KQU1 171806Z 18011KT 19/01 A297 RMK A01 T01920007  RH  029%=      5-min Rain = 0
KQU1 171807Z 20009KT 19/00 A297 RMK A01 T01920002  RH  028%=      5-min Rain = 0
KQU1 171808Z 19008KT 19/00 A297 RMK A01 T01920004  RH  028%=      5-min Rain = 0
KQU1 171809Z 20009KT 19/00 A297 RMK A01 T01920002  RH  028%=      5-min Rain = 0
KQU1 171810Z 21013KT 19/00 A297 RMK A01 T01920004  RH  028%=      5-min Rain = 0
KQU1 171811Z 21011KT 19/M00 A297 RMK A01 T01911002  RH  027%=      5-min Rain = 0
KQU1 171812Z 20012KT 19/00 A2969 RMK A01 T01900002  RH  028%=      5-min Rain = 0
KQU1 171813Z 20011KT 19/00 A2969 RMK A01 T01900001  RH  028%=      5-min Rain = 0
KQU1 171814Z 20009KT 19/00 A2969 RMK A01 T01910002  RH  028%=      5-min Rain = 0
KQU1 171815Z 19012KT 19/00 A2969 RMK A01 T01930001  RH  028%=      5-min Rain = 0
KQU1 171816Z 19010KT 19/00 A2969 RMK A01 T01920001  RH  028%=      5-min Rain = 0
KQU1 171817Z 20012KT 19/00 A2969 RMK A01 T01920001  RH  028%=      5-min Rain = 0
KQU1 171818Z 19011KT 19/00 A2969 RMK A01 T01920001  RH  028%=      5-min Rain = 0
KQU1 171819Z 18013KT 19/M00 A2969 RMK A01 T01911001  RH  027%=      5-min Rain = 0
KQU1 171820Z 19015KT 19/M00 A2969 RMK A01 T01911004  RH  027%=      5-min Rain = 0
KQU1 171821Z 19014KT 19/M01 A2969 RMK A01 T01901006  RH  027%=      5-min Rain = 0
KQU1 171822Z 19016KT 19/M00 A2969 RMK A01 T01891004  RH  027%=      5-min Rain = 0
KQU1 171823Z 19014KT 19/M00 A2969 RMK A01 T01891002  RH  028%=      5-min Rain = 0
KQU1 171824Z 20012KT 19/M00 A2969 RMK A01 T01901001  RH  028%=      5-min Rain = 0
KQU1 171825Z 20009KT 19/M01 A2969 RMK A01 T01901007  RH  027%=      5-min Rain = 0
KQU1 171826Z 19011KT 19/00 A2969 RMK A01 T01910003  RH  028%=      5-min Rain = 0
KQU1 171827Z 19016KT 19/00 A2969 RMK A01 T019300-0  RH  027%=      5-min Rain = 0
KQU1 171828Z 20012KT 19/00 A2969 RMK A01 T01920001  RH  028%=      5-min Rain = 0
KQU1 171829Z 19016KT 19/00 A2969 RMK A01 T01920001  RH  028%=      5-min Rain = 0
KQU1 171830Z 20016KT 19/01 A2969 RMK A01 T01930005  RH  028%=      5-min Rain = 0
KQU1 171831Z 20015KT 19/M00 A2969 RMK A01 T01941002  RH  027%=      5-min Rain = 0
KQU1 171832Z 21012KT 19/M01 A2968 RMK A01 T01931005  RH  026%=      5-min Rain = 0
KQU1 171833Z 20014KT 19/M00 A2968 RMK A01 T01941004  RH  026%=      5-min Rain = 0
KQU1 171834Z 21012KT 19/M00 A2968 RMK A01 T01931004  RH  026%=      5-min Rain = 0
KQU1 171835Z 20016KT 19/M01 A2968 RMK A01 T01931010  RH  025%=      5-min Rain = 0
KQU1 171836Z 19015KT 19/M01 A2968 RMK A01 T01931007  RH  026%=      5-min Rain = 0
KQU1 171837Z 18014KT 19/M00 A2968 RMK A01 T01931004  RH  027%=      5-min Rain = 0
KQU1 171838Z 20018KT 19/M00 A2968 RMK A01 T01941003  RH  026%=      5-min Rain = 0
KQU1 171839Z 20015KT 19/M00 A2968 RMK A01 T01941001  RH  027%=      5-min Rain = 0
KQU1 171840Z 20014KT 19/M00 A2968 RMK A01 T01941001  RH  027%=      5-min Rain = 0
KQU1 171841Z 20009KT 19/00 A2968 RMK A01 T01940001  RH  027%=      5-min Rain = 0
KQU1 171842Z 20012G17KT 20/00 A2968 RMK A01 T01950003  RH  028%=      5-min Rain = 0
KQU1 171843Z 20013KT 20/00 A2968 RMK A01 T01970003  RH  027%=      5-min Rain = 0
KQU1 171844Z 21015KT 20/00 A2968 RMK A01 T01970002  RH  027%=      5-min Rain = 0
KQU1 171845Z 22013KT 20/M00 A2968 RMK A01 T01961001  RH  027%=      5-min Rain = 0
KQU1 171846Z 22013KT 20/M00 A2968 RMK A01 T01971001  RH  027%=      5-min Rain = 0
KQU1 171847Z 21014KT 20/M00 A2968 RMK A01 T01971003  RH  026%=      5-min Rain = 0
KQU1 171848Z 21015KT 20/M00 A2967 RMK A01 T01961001  RH  027%=      5-min Rain = 0
KQU1 171849Z 20011KT 20/00 A2967 RMK A01 T01960003  RH  027%=      5-min Rain = 0
KQU1 171850Z 19013KT 20/00 A2967 RMK A01 T01970001  RH  027%=      5-min Rain = 0
KQU1 171851Z 19017KT 20/M00 A2967 RMK A01 T01971004  RH  026%=      5-min Rain = 0
KQU1 171852Z 19013KT 20/01 A2967 RMK A01 T01960006  RH  028%=      5-min Rain = 0
KQU1 171853Z 19014KT 20/00 A2967 RMK A01 T019700-0  RH  027%=      5-min Rain = 0
KQU1 171854Z 20015KT 20/00 A2967 RMK A01 T01970000  RH  027%=      5-min Rain = 0
KQU1 171855Z 19015KT 20/M00 A2967 RMK A01 T01981003  RH  026%=      5-min Rain = 0
KQU1 171856Z 20016G21KT 20/00 A2967 RMK A01 T01980001  RH  027%=      5-min Rain = 0
KQU1 171857Z 20018KT 20/M00 A2967 RMK A01 T01971003  RH  026%=      5-min Rain = 0
KQU1 171858Z 20016KT 20/M00 A2967 RMK A01 T01951004  RH  026%=      5-min Rain = 0
KQU1 171859Z 20015KT 19/M00 A2967 RMK A01 T01941002  RH  027%=      5-min Rain = 0
KQU1 171900Z 20011KT 19/M00 A2967 RMK A01 T01941004  RH  026%=      5-min Rain = 0
KQU1 171901Z 19010KT 19/M00 A2967 RMK A01 T01941002  RH  027%=      5-min Rain = 0
KQU1 171902Z 20013KT 20/00 A2967 RMK A01 T01960003  RH  027%=      5-min Rain = 0
KQU1 171903Z 20015KT 20/00 A2967 RMK A01 T01990004  RH  027%=      5-min Rain = 0
KQU1 171904Z 19015KT 20/00 A2967 RMK A01 T01990002  RH  027%=      5-min Rain = 0
KQU1 171905Z 19014KT 20/00 A2967 RMK A01 T01980001  RH  027%=      5-min Rain = 0
KQU1 171906Z 20011G16KT 20/01 A2967 RMK A01 T01990006  RH  028%=      5-min Rain = 0
KQU1 171907Z 21015G20KT 20/01 A2967 RMK A01 T02000005  RH  027%=      5-min Rain = 0
KQU1 171908Z 21016KT 20/01 A2967 RMK A01 T02000007  RH  027%=      5-min Rain = 0
KQU1 171909Z 19016KT 20/01 A2967 RMK A01 T02000008  RH  028%=      5-min Rain = 0
KQU1 171910Z 18013KT 20/01 A2967 RMK A01 T02000008  RH  028%=      5-min Rain = 0
KQU1 171911Z 18014KT 20/01 A2967 RMK A01 T01990006  RH  027%=      5-min Rain = 0
KQU1 171912Z 19013G18KT 20/01 A2967 RMK A01 T01990010  RH  028%=      5-min Rain = 0
KQU1 171913Z 20013KT 20/01 A2967 RMK A01 T02000008  RH  028%=      5-min Rain = 0
KQU1 171914Z 20012KT 20/01 A2967 RMK A01 T02000006  RH  027%=      5-min Rain = 0
KQU1 171915Z 20013KT 20/00 A2967 RMK A01 T01990001  RH  026%=      5-min Rain = 0
KQU1 171916Z 21013KT 20/01 A2967 RMK A01 T01990005  RH  027%=      5-min Rain = 0
KQU1 171917Z 20013KT 20/01 A2967 RMK A01 T02000008  RH  028%=      5-min Rain = 0
KQU1 171918Z 19014KT 20/01 A2967 RMK A01 T01990005  RH  027%=      5-min Rain = 0
KQU1 171919Z 18013KT 20/00 A2966 RMK A01 T01980003  RH  027%=      5-min Rain = 0
KQU1 171920Z 18012KT 20/00 A2966 RMK A01 T01980004  RH  027%=      5-min Rain = 0
KQU1 171921Z 20014KT 20/00 A2966 RMK A01 T01990000  RH  026%=      5-min Rain = 0
KQU1 171922Z 20011KT 20/00 A2966 RMK A01 T019800-0  RH  026%=      5-min Rain = 0
KQU1 171923Z 18013KT 20/01 A2966 RMK A01 T01990007  RH  028%=      5-min Rain = 0
KQU1 171924Z 17013KT 20/00 A2966 RMK A01 T02000004  RH  027%=      5-min Rain = 0
KQU1 171925Z 18013KT 20/M00 A2966 RMK A01 T02011002  RH  026%=      5-min Rain = 0
KQU1 171926Z 19011KT 20/M00 A2966 RMK A01 T02011002  RH  026%=      5-min Rain = 0
KQU1 171927Z 17011KT 20/00 A2966 RMK A01 T02010003  RH  026%=      5-min Rain = 0
KQU1 171928Z 17009KT 20/00 A2966 RMK A01 T02010004  RH  027%=      5-min Rain = 0
KQU1 171929Z 18011KT 20/01 A2966 RMK A01 T02020005  RH  027%=      5-min Rain = 0
KQU1 171930Z 18009KT 20/00 A2966 RMK A01 T02020003  RH  026%=      5-min Rain = 0
KQU1 171931Z 18013KT 20/01 A2966 RMK A01 T02030005  RH  027%=      5-min Rain = 0
KQU1 171932Z 18013KT 20/00 A2966 RMK A01 T02040003  RH  026%=      5-min Rain = 0
KQU1 171933Z 17014KT 20/01 A2966 RMK A01 T02040006  RH  027%=      5-min Rain = 0
KQU1 171934Z 17012KT 20/00 A2966 RMK A01 T02030001  RH  026%=      5-min Rain = 0
KQU1 171935Z 17010KT 20/00 A2966 RMK A01 T02020002  RH  026%=      5-min Rain = 0
KQU1 171936Z 19012KT 20/01 A2965 RMK A01 T02030006  RH  027%=      5-min Rain = 0
KQU1 171937Z 18012G17KT 21/01 A2965 RMK A01 T02050013  RH  028%=      5-min Rain = 0
KQU1 171938Z 17012KT 21/01 A2965 RMK A01 T02050006  RH  027%=      5-min Rain = 0
KQU1 171939Z 17012KT 21/01 A2965 RMK A01 T02050005  RH  026%=      5-min Rain = 0
KQU1 171940Z 17014KT 20/00 A2965 RMK A01 T02040004  RH  026%=      5-min Rain = 0
KQU1 171941Z 19014KT 21/01 A2965 RMK A01 T02050009  RH  027%=      5-min Rain = 0
KQU1 171942Z 18013KT 21/01 A2965 RMK A01 T02050006  RH  027%=      5-min Rain = 0
KQU1 171943Z 17012KT 21/00 A2965 RMK A01 T02050003  RH  026%=      5-min Rain = 0
KQU1 171944Z 16013KT 21/01 A2965 RMK A01 T02050006  RH  027%=      5-min Rain = 0
KQU1 171945Z 18012KT 21/01 A2965 RMK A01 T02060010  RH  027%=      5-min Rain = 0
KQU1 171946Z 18011KT 21/01 A2965 RMK A01 T02080011  RH  027%=      5-min Rain = 0
KQU1 171947Z 19012KT 21/01 A2965 RMK A01 T02100014  RH  027%=      5-min Rain = 0
KQU1 171948Z 19013KT 21/01 A2965 RMK A01 T02090008  RH  026%=      5-min Rain = 0
KQU1 171949Z 18009KT 21/01 A2965 RMK A01 T02060005  RH  026%=      5-min Rain = 0
KQU1 171950Z 17011KT 21/01 A2965 RMK A01 T02050008  RH  027%=      5-min Rain = 0
KQU1 171951Z 18011KT 21/01 A2965 RMK A01 T02060007  RH  027%=      5-min Rain = 0
KQU1 171952Z 17011KT 21/01 A2965 RMK A01 T02060008  RH  027%=      5-min Rain = 0
KQU1 171953Z 20010KT 21/01 A2965 RMK A01 T02060011  RH  027%=      5-min Rain = 0
KQU1 171954Z 20014KT 21/01 A2965 RMK A01 T02070011  RH  027%=      5-min Rain = 0
KQU1 171955Z 19013KT 21/01 A2965 RMK A01 T02070010  RH  027%=      5-min Rain = 0
KQU1 171956Z 19014KT 21/01 A2964 RMK A01 T02080011  RH  027%=      5-min Rain = 0
KQU1 171957Z 19014KT 21/01 A2964 RMK A01 T02070008  RH  027%=      5-min Rain = 0
KQU1 171958Z 20013KT 21/01 A2964 RMK A01 T02060010  RH  027%=      5-min Rain = 0
KQU1 171959Z 18013KT 21/01 A2964 RMK A01 T02070013  RH  028%=      5-min Rain = 0
KQU1 172000Z 17013KT 21/01 A2964 RMK A01 T02060011  RH  027%=      5-min Rain = 0
KQU1 172001Z 17012KT 21/02 A2964 RMK A01 T02070017  RH  028%=      5-min Rain = 0
KQU1 172002Z 18016KT 21/01 A2964 RMK A01 T02090014  RH  027%=      5-min Rain = 0
KQU1 172003Z 18015KT 21/01 A2964 RMK A01 T02080013  RH  027%=      5-min Rain = 0
KQU1 172004Z 18015KT 21/01 A2964 RMK A01 T02070011  RH  027%=      5-min Rain = 0
KQU1 172005Z 18015KT 21/01 A2964 RMK A01 T02060010  RH  027%=      5-min Rain = 0
KQU1 172006Z 18014KT 21/01 A2964 RMK A01 T02060013  RH  028%=      5-min Rain = 0
KQU1 172007Z 18012KT 21/02 A2964 RMK A01 T02090017  RH  028%=      5-min Rain = 0
KQU1 172008Z 18012KT 21/01 A2964 RMK A01 T02090009  RH  026%=      5-min Rain = 0
KQU1 172009Z 18012KT 21/01 A2964 RMK A01 T02090005  RH  026%=      5-min Rain = 0
KQU1 172010Z 17012KT 21/00 A2964 RMK A01 T02070004  RH  026%=      5-min Rain = 0
KQU1 172011Z 19014KT 21/01 A2964 RMK A01 T02070006  RH  026%=      5-min Rain = 0
KQU1 172012Z 19013KT 21/01 A2964 RMK A01 T02060009  RH  027%=      5-min Rain = 0
KQU1 172013Z 18014KT 21/01 A2964 RMK A01 T02070009  RH  027%=      5-min Rain = 0
KQU1 172014Z 17013KT 21/01 A2964 RMK A01 T02080007  RH  026%=      5-min Rain = 0
KQU1 172015Z 18016KT 21/00 A2964 RMK A01 T02070003  RH  026%=      5-min Rain = 0
KQU1 172016Z 19015KT 21/00 A2964 RMK A01 T02060004  RH  026%=      5-min Rain = 0
KQU1 172017Z 18013KT 21/01 A2964 RMK A01 T02050006  RH  026%=      5-min Rain = 0
KQU1 172018Z 18013KT 21/01 A2964 RMK A01 T02060007  RH  026%=      5-min Rain = 0
KQU1 172019Z 18013KT 21/01 A2964 RMK A01 T02070007  RH  026%=      5-min Rain = 0
KQU1 172020Z 17012KT 21/00 A2964 RMK A01 T02060003  RH  026%=      5-min Rain = 0
KQU1 172021Z 18014KT 21/01 A2964 RMK A01 T02070008  RH  027%=      5-min Rain = 0
KQU1 172022Z 18015KT 21/01 A2964 RMK A01 T02070007  RH  026%=      5-min Rain = 0
KQU1 172023Z 19015KT 21/01 A2964 RMK A01 T02070010  RH  027%=      5-min Rain = 0
KQU1 172024Z 18013KT 21/01 A2963 RMK A01 T02060009  RH  027%=      5-min Rain = 0
KQU1 172025Z 18010KT 21/01 A2963 RMK A01 T02060007  RH  027%=      5-min Rain = 0
KQU1 172026Z 18010KT 21/01 A2963 RMK A01 T02060009  RH  027%=      5-min Rain = 0
KQU1 172027Z 18014KT 21/01 A2963 RMK A01 T02060012  RH  028%=      5-min Rain = 0
KQU1 172028Z 17012KT 21/01 A2963 RMK A01 T02070010  RH  027%=      5-min Rain = 0
KQU1 172029Z 18012KT 21/01 A2963 RMK A01 T02080010  RH  027%=      5-min Rain = 0
KQU1 172030Z 19009KT 21/00 A2963 RMK A01 T02080002  RH  025%=      5-min Rain = 0
KQU1 172031Z 18011KT 21/01 A2963 RMK A01 T02080008  RH  026%=      5-min Rain = 0
KQU1 172032Z 19013KT 21/01 A2963 RMK A01 T02080011  RH  027%=      5-min Rain = 0
KQU1 172033Z 19016KT 21/01 A2963 RMK A01 T02080010  RH  027%=      5-min Rain = 0
KQU1 172034Z 19013KT 21/01 A2963 RMK A01 T02060009  RH  027%=      5-min Rain = 0
KQU1 172035Z 19010KT 20/01 A2963 RMK A01 T02040010  RH  027%=      5-min Rain = 0
KQU1 172036Z 18014KT 21/01 A2963 RMK A01 T02050011  RH  028%=      5-min Rain = 0
KQU1 172037Z 18013G18KT 21/01 A2963 RMK A01 T02060012  RH  027%=      5-min Rain = 0
KQU1 172038Z 19016KT 21/01 A2963 RMK A01 T02070005  RH  026%=      5-min Rain = 0
KQU1 172039Z 19015KT 21/00 A2963 RMK A01 T02060002  RH  026%=      5-min Rain = 0
KQU1 172040Z 20011KT 21/00 A2963 RMK A01 T02050004  RH  026%=      5-min Rain = 0
KQU1 172041Z 19011KT 21/01 A2963 RMK A01 T02060010  RH  027%=      5-min Rain = 0
KQU1 172042Z 17010KT 21/01 A2963 RMK A01 T02090013  RH  027%=      5-min Rain = 0
KQU1 172043Z 17011KT 21/01 A2963 RMK A01 T02100012  RH  027%=      5-min Rain = 0
KQU1 172044Z 18011KT 21/01 A2963 RMK A01 T02100011  RH  027%=      5-min Rain = 0
KQU1 172045Z 17011G16KT 21/01 A2963 RMK A01 T02100012  RH  027%=      5-min Rain = 0
KQU1 172046Z 17013KT 21/00 A2963 RMK A01 T02100002  RH  025%=      5-min Rain = 0
KQU1 172047Z 16012KT 21/01 A2963 RMK A01 T02090008  RH  026%=      5-min Rain = 0
KQU1 172048Z 17015KT 21/01 A2963 RMK A01 T02110005  RH  025%=      5-min Rain = 0
KQU1 172049Z 18017KT 21/00 A2963 RMK A01 T02110004  RH  025%=      5-min Rain = 0
KQU1 172050Z 19017KT 21/00 A2963 RMK A01 T02100001  RH  025%=      5-min Rain = 0
KQU1 172051Z 19016KT 21/00 A2963 RMK A01 T02100003  RH  025%=      5-min Rain = 0
KQU1 172052Z 20012KT 21/00 A2963 RMK A01 T02090003  RH  025%=      5-min Rain = 0
KQU1 172053Z 20013KT 21/01 A2963 RMK A01 T02100005  RH  025%=      5-min Rain = 0
KQU1 172054Z 20013KT 21/00 A2963 RMK A01 T021000-0  RH  025%=      5-min Rain = 0
KQU1 172055Z 19013KT 21/00 A2963 RMK A01 T02090003  RH  025%=      5-min Rain = 0
KQU1 172056Z 19013KT 21/00 A2963 RMK A01 T021000-0  RH  025%=      5-min Rain = 0
KQU1 172057Z 18012KT 21/00 A2963 RMK A01 T02090004  RH  025%=      5-min Rain = 0
KQU1 172058Z 18015KT 21/00 A2963 RMK A01 T02100003  RH  025%=      5-min Rain = 0
KQU1 172059Z 20015KT 21/00 A2963 RMK A01 T020900-0  RH  025%=      5-min Rain = 0
KQU1 172100Z 19015KT 21/00 A2963 RMK A01 T02080003  RH  025%=      5-min Rain = 0
KQU1 172101Z 19014KT 21/00 A2963 RMK A01 T02070001  RH  025%=      5-min Rain = 0
KQU1 172102Z 22012KT 21/00 A2963 RMK A01 T02070004  RH  026%=      5-min Rain = 0
KQU1 172103Z 22011KT 21/00 A2963 RMK A01 T02080003  RH  025%=      5-min Rain = 0
KQU1 172104Z 19010KT 21/01 A2963 RMK A01 T02080005  RH  026%=      5-min Rain = 0
KQU1 172105Z 17012KT 21/00 A2963 RMK A01 T02100004  RH  025%=      5-min Rain = 0
KQU1 172106Z 18015KT 21/01 A2963 RMK A01 T02110008  RH  026%=      5-min Rain = 0
KQU1 172107Z 19014KT 21/01 A2963 RMK A01 T02100005  RH  025%=      5-min Rain = 0
KQU1 172108Z 18013KT 21/00 A2963 RMK A01 T02090004  RH  025%=      5-min Rain = 0
KQU1 172109Z 18011KT 21/00 A2963 RMK A01 T02070004  RH  026%=      5-min Rain = 0
KQU1 172110Z 19011KT 21/01 A2963 RMK A01 T02080006  RH  026%=      5-min Rain = 0
KQU1 172111Z 17012KT 21/01 A2963 RMK A01 T02080006  RH  026%=      5-min Rain = 0
KQU1 172112Z 17013KT 21/01 A2963 RMK A01 T02090006  RH  026%=      5-min Rain = 0
KQU1 172113Z 16011KT 21/01 A2963 RMK A01 T02090008  RH  026%=      5-min Rain = 0
KQU1 172114Z 18014G19KT 21/01 A2963 RMK A01 T02110010  RH  026%=      5-min Rain = 0
KQU1 172115Z 17015KT 21/01 A2963 RMK A01 T02100007  RH  026%=      5-min Rain = 0
KQU1 172116Z 18014KT 21/01 A2963 RMK A01 T02090011  RH  027%=      5-min Rain = 0
KQU1 172117Z 18013KT 21/01 A2963 RMK A01 T02090011  RH  027%=      5-min Rain = 0
KQU1 172118Z 17016KT 21/01 A2963 RMK A01 T02090007  RH  026%=      5-min Rain = 0
KQU1 172119Z 19015KT 21/00 A2963 RMK A01 T02100002  RH  025%=      5-min Rain = 0
KQU1 172120Z 20015KT 21/00 A2963 RMK A01 T02090000  RH  025%=      5-min Rain = 0
KQU1 172121Z 21013KT 21/M00 A2963 RMK A01 T02091001  RH  024%=      5-min Rain = 0
KQU1 172122Z 21011KT 21/00 A2963 RMK A01 T02090001  RH  025%=      5-min Rain = 0
KQU1 172123Z 21013KT 21/00 A2962 RMK A01 T02110002  RH  025%=      5-min Rain = 0
KQU1 172124Z 21013KT 21/00 A2962 RMK A01 T021000-0  RH  024%=      5-min Rain = 0
KQU1 172125Z 20012KT 21/M01 A2962 RMK A01 T02091006  RH  024%=      5-min Rain = 0
KQU1 172126Z 19010KT 21/M00 A2962 RMK A01 T02081003  RH  024%=      5-min Rain = 0
KQU1 172127Z 19009KT 21/00 A2962 RMK A01 T02090002  RH  025%=      5-min Rain = 0
KQU1 172128Z 18010KT 21/M00 A2962 RMK A01 T02101003  RH  024%=      5-min Rain = 0
KQU1 172129Z 17009KT 21/M00 A2962 RMK A01 T02091002  RH  024%=      5-min Rain = 0
KQU1 172130Z 17013KT 21/00 A2962 RMK A01 T02100003  RH  025%=      5-min Rain = 0
KQU1 172131Z 17012KT 21/00 A2962 RMK A01 T02110000  RH  024%=      5-min Rain = 0
KQU1 172132Z 15008KT 21/M00 A2962 RMK A01 T02101002  RH  024%=      5-min Rain = 0
KQU1 172133Z 16011KT 21/00 A2962 RMK A01 T02100004  RH  025%=      5-min Rain = 0
KQU1 172134Z 16013G19KT 21/01 A2962 RMK A01 T02120009  RH  026%=      5-min Rain = 0
KQU1 172135Z 16014KT 21/01 A2962 RMK A01 T02130005  RH  025%=      5-min Rain = 0
KQU1 172136Z 16014KT 21/00 A2962 RMK A01 T02130002  RH  025%=      5-min Rain = 0
KQU1 172137Z 16012KT 21/00 A2962 RMK A01 T02120004  RH  025%=      5-min Rain = 0
KQU1 172138Z 16011KT 21/00 A2962 RMK A01 T02110003  RH  025%=      5-min Rain = 0
KQU1 172139Z 16013KT 21/00 A2962 RMK A01 T02110003  RH  025%=      5-min Rain = 0
KQU1 172140Z 16014KT 21/01 A2962 RMK A01 T02110005  RH  025%=      5-min Rain = 0
KQU1 172141Z 18015KT 21/00 A2962 RMK A01 T02120003  RH  025%=      5-min Rain = 0
KQU1 172142Z 19013KT 21/00 A2962 RMK A01 T02130004  RH  025%=      5-min Rain = 0
KQU1 172143Z 18014KT 21/00 A2962 RMK A01 T02130002  RH  025%=      5-min Rain = 0
KQU1 172144Z 18012KT 21/00 A2962 RMK A01 T02140001  RH  024%=      5-min Rain = 0
KQU1 172145Z 20012KT 21/M00 A2962 RMK A01 T02131002  RH  024%=      5-min Rain = 0
KQU1 172146Z 19010KT 21/00 A2962 RMK A01 T02130001  RH  024%=      5-min Rain = 0
KQU1 172147Z 18010KT 21/00 A2962 RMK A01 T02140002  RH  024%=      5-min Rain = 0
KQU1 172148Z 19009KT 21/00 A2962 RMK A01 T02140001  RH  024%=      5-min Rain = 0
KQU1 172149Z 20010KT 22/00 A2962 RMK A01 T02150002  RH  024%=      5-min Rain = 0
KQU1 172150Z 20011KT 22/M00 A2962 RMK A01 T02151001  RH  024%=      5-min Rain = 0
KQU1 172151Z 20011KT 21/00 A2962 RMK A01 T021400-0  RH  024%=      5-min Rain = 0
KQU1 172152Z 18013KT 21/01 A2962 RMK A01 T02140006  RH  025%=      5-min Rain = 0
KQU1 172153Z 17011KT 22/00 A2962 RMK A01 T02150004  RH  025%=      5-min Rain = 0
KQU1 172154Z 16013KT 22/00 A2962 RMK A01 T02150000  RH  024%=      5-min Rain = 0
KQU1 172155Z 17013KT 22/00 A2962 RMK A01 T02150002  RH  024%=      5-min Rain = 0
KQU1 172156Z 17011KT 21/00 A2962 RMK A01 T02140002  RH  024%=      5-min Rain = 0
KQU1 172157Z 17012KT 21/01 A2962 RMK A01 T02140005  RH  025%=      5-min Rain = 0
KQU1 172158Z 16012KT 22/00 A2962 RMK A01 T02150004  RH  025%=      5-min Rain = 0
KQU1 172159Z 16013KT 21/00 A2962 RMK A01 T02140001  RH  024%=      5-min Rain = 0
KQU1 172200Z 17011KT 21/00 A2962 RMK A01 T02140002  RH  024%=      5-min Rain = 0
KQU1 172201Z 17009KT 21/M00 A2962 RMK A01 T02131002  RH  024%=      5-min Rain = 0
KQU1 172202Z 18008KT 21/M00 A2962 RMK A01 T02131001  RH  024%=      5-min Rain = 0
KQU1 172203Z 17008KT 21/00 A2962 RMK A01 T021300-0  RH  024%=      5-min Rain = 0
KQU1 172204Z 16009KT 21/M00 A2962 RMK A01 T02131001  RH  024%=      5-min Rain = 0
KQU1 172205Z 17011KT 21/00 A2962 RMK A01 T02130001  RH  024%=      5-min Rain = 0
KQU1 172206Z 16015KT 21/00 A2962 RMK A01 T02130001  RH  024%=      5-min Rain = 0
KQU1 172207Z 18015KT 21/00 A2962 RMK A01 T02130001  RH  024%=      5-min Rain = 0
KQU1 172208Z 18016KT 21/M00 A2962 RMK A01 T02121002  RH  024%=      5-min Rain = 0
KQU1 172209Z 18012KT 21/00 A2962 RMK A01 T02120002  RH  025%=      5-min Rain = 0
KQU1 172210Z 18010KT 21/M00 A2962 RMK A01 T02121002  RH  024%=      5-min Rain = 0
KQU1 172211Z 18011KT 21/M00 A2962 RMK A01 T02121001  RH  024%=      5-min Rain = 0
KQU1 172212Z 18012KT 21/M00 A2962 RMK A01 T02111002  RH  024%=      5-min Rain = 0
KQU1 172213Z 17010KT 21/M00 A2962 RMK A01 T02111001  RH  024%=      5-min Rain = 0
KQU1 172214Z 17010KT 21/M00 A2962 RMK A01 T02111004  RH  024%=      5-min Rain = 0
KQU1 172215Z 18009KT 21/00 A2962 RMK A01 T02120003  RH  025%=      5-min Rain = 0
KQU1 172216Z 16010KT 21/M00 A2962 RMK A01 T02121001  RH  024%=      5-min Rain = 0
KQU1 172217Z 17008KT 21/00 A2962 RMK A01 T02130002  RH  025%=      5-min Rain = 0
KQU1 172218Z 17010KT 21/01 A2962 RMK A01 T02130005  RH  025%=      5-min Rain = 0
KQU1 172219Z 17013KT 21/M00 A2962 RMK A01 T02141001  RH  024%=      5-min Rain = 0
KQU1 172220Z 18012KT 21/00 A2962 RMK A01 T02140000  RH  024%=      5-min Rain = 0
KQU1 172221Z 18009KT 21/M00 A2962 RMK A01 T02141001  RH  024%=      5-min Rain = 0
KQU1 172222Z 17008KT 21/00 A2962 RMK A01 T021400-0  RH  024%=      5-min Rain = 0
KQU1 172223Z 19011KT 21/M00 A2962 RMK A01 T02141004  RH  023%=      5-min Rain = 0
KQU1 172224Z 18010KT 21/M00 A2962 RMK A01 T02131002  RH  024%=      5-min Rain = 0
KQU1 172225Z 18010KT 21/M00 A2962 RMK A01 T02131004  RH  024%=      5-min Rain = 0
KQU1 172226Z 17009KT 21/00 A2962 RMK A01 T02130000  RH  024%=      5-min Rain = 0
KQU1 172227Z 16011KT 21/M01 A2962 RMK A01 T02141005  RH  023%=      5-min Rain = 0
KQU1 172228Z 16013KT 21/M00 A2962 RMK A01 T02141003  RH  023%=      5-min Rain = 0
KQU1 172229Z 17012KT 21/M01 A2962 RMK A01 T02141005  RH  023%=      5-min Rain = 0
KQU1 172230Z 18013KT 21/M00 A2961 RMK A01 T02131004  RH  023%=      5-min Rain = 0
KQU1 172231Z 18012KT 21/M00 A2961 RMK A01 T02131002  RH  024%=      5-min Rain = 0
KQU1 172232Z 17010KT 21/00 A2961 RMK A01 T02120000  RH  024%=      5-min Rain = 0
KQU1 172233Z 16008KT 21/00 A2961 RMK A01 T021400-0  RH  024%=      5-min Rain = 0
KQU1 172234Z 15008KT 21/M00 A2961 RMK A01 T02131003  RH  024%=      5-min Rain = 0
KQU1 172235Z 15011KT 21/M01 A2961 RMK A01 T02131005  RH  023%=      5-min Rain = 0
KQU1 172236Z 16011KT 21/M01 A2961 RMK A01 T02131005  RH  023%=      5-min Rain = 0
KQU1 172237Z 16009KT 21/M01 A2961 RMK A01 T02121005  RH  023%=      5-min Rain = 0
KQU1 172238Z 16007KT 21/M00 A2961 RMK A01 T02121004  RH  024%=      5-min Rain = 0
KQU1 172239Z 15010KT 21/M00 A2961 RMK A01 T02141001  RH  024%=      5-min Rain = 0
KQU1 172240Z 15010KT 22/M00 A2961 RMK A01 T02151002  RH  024%=      5-min Rain = 0
KQU1 172241Z 15009KT 22/M00 A2961 RMK A01 T02151002  RH  024%=      5-min Rain = 0
KQU1 172242Z 15010KT 22/M00 A2961 RMK A01 T02161003  RH  023%=      5-min Rain = 0
KQU1 172243Z 16011KT 22/M00 A2961 RMK A01 T02161002  RH  023%=      5-min Rain = 0
KQU1 172244Z 16009KT 22/00 A2961 RMK A01 T02150001  RH  024%=      5-min Rain = 0
KQU1 172245Z 14012KT 22/00 A2961 RMK A01 T02160000  RH  024%=      5-min Rain = 0
KQU1 172246Z 15010KT 22/00 A2961 RMK A01 T02170001  RH  024%=      5-min Rain = 0
KQU1 172247Z 15012KT 22/M00 A2961 RMK A01 T02161003  RH  023%=      5-min Rain = 0
KQU1 172248Z 14011KT 22/M01 A2961 RMK A01 T02151005  RH  023%=      5-min Rain = 0
KQU1 172249Z 14009KT 22/M00 A2961 RMK A01 T02151004  RH  023%=      5-min Rain = 0
KQU1 172250Z 15012KT 21/M01 A2961 RMK A01 T02141006  RH  023%=      5-min Rain = 0
KQU1 172251Z 14012KT 21/M00 A2961 RMK A01 T02141003  RH  024%=      5-min Rain = 0
KQU1 172252Z 16010KT 21/M00 A2961 RMK A01 T02141001  RH  024%=      5-min Rain = 0
KQU1 172253Z 16012KT 21/00 A2961 RMK A01 T02130000  RH  024%=      5-min Rain = 0
KQU1 172254Z 15013KT 21/M00 A2961 RMK A01 T02131002  RH  024%=      5-min Rain = 0
KQU1 172255Z 15011KT 21/M00 A2961 RMK A01 T02121004  RH  024%=      5-min Rain = 0
KQU1 172256Z 15012KT 21/M00 A2961 RMK A01 T02121001  RH  024%=      5-min Rain = 0
KQU1 172257Z 16011KT 21/M00 A2961 RMK A01 T02121002  RH  024%=      5-min Rain = 0
KQU1 172258Z 15008KT 21/00 A2961 RMK A01 T02120004  RH  025%=      5-min Rain = 0
KQU1 172259Z 14011KT 21/00 A2961 RMK A01 T02130003  RH  025%=      5-min Rain = 0
KQU1 172300Z 14010KT 21/M00 A2961 RMK A01 T02141004  RH  023%=      5-min Rain = 0
KQU1 172301Z 15009KT 21/M00 A2961 RMK A01 T02141004  RH  023%=      5-min Rain = 0
KQU1 172302Z 15009KT 21/M00 A2961 RMK A01 T02141001  RH  024%=      5-min Rain = 0
KQU1 172303Z 15009KT 21/00 A2961 RMK A01 T02140001  RH  024%=      5-min Rain = 0
KQU1 172304Z 17011KT 21/M00 A2962 RMK A01 T02131003  RH  024%=      5-min Rain = 0
KQU1 172305Z 17009KT 21/M00 A2962 RMK A01 T02121004  RH  024%=      5-min Rain = 0
KQU1 172306Z 16010KT 21/M00 A2962 RMK A01 T02111002  RH  024%=      5-min Rain = 0
KQU1 172307Z 15008KT 21/00 A2962 RMK A01 T02110000  RH  024%=      5-min Rain = 0
KQU1 172308Z 15009KT 21/00 A2962 RMK A01 T02120000  RH  024%=      5-min Rain = 0
KQU1 172309Z 15010KT 21/M00 A2962 RMK A01 T02121001  RH  024%=      5-min Rain = 0
KQU1 172310Z 15009KT 21/00 A2962 RMK A01 T02120002  RH  025%=      5-min Rain = 0
KQU1 172311Z 14010KT 21/00 A2962 RMK A01 T02110003  RH  025%=      5-min Rain = 0
KQU1 172312Z 14009KT 21/01 A2962 RMK A01 T02110005  RH  025%=      5-min Rain = 0
KQU1 172313Z 15010KT 21/01 A2962 RMK A01 T02110006  RH  025%=      5-min Rain = 0
KQU1 172314Z 15009KT 21/01 A2962 RMK A01 T02110007  RH  026%=      5-min Rain = 0
KQU1 172315Z 14009KT 21/01 A2962 RMK A01 T02100008  RH  026%=      5-min Rain = 0
KQU1 172316Z 15011KT 21/01 A2962 RMK A01 T02100009  RH  026%=      5-min Rain = 0
KQU1 172317Z 14011KT 21/01 A2962 RMK A01 T02090007  RH  026%=      5-min Rain = 0
KQU1 172318Z 15010KT 21/01 A2962 RMK A01 T02080010  RH  027%=      5-min Rain = 0
KQU1 172319Z 14009KT 21/01 A2962 RMK A01 T02080011  RH  027%=      5-min Rain = 0
KQU1 172320Z 13009KT 21/01 A2962 RMK A01 T02080013  RH  027%=      5-min Rain = 0
KQU1 172321Z 14010KT 21/01 A2962 RMK A01 T02080011  RH  027%=      5-min Rain = 0
KQU1 172322Z 14009KT 21/01 A2962 RMK A01 T02080012  RH  027%=      5-min Rain = 0
KQU1 172323Z 13009KT 21/01 A2962 RMK A01 T02080012  RH  027%=      5-min Rain = 0
KQU1 172324Z 13009KT 21/01 A2962 RMK A01 T02080012  RH  027%=      5-min Rain = 0
KQU1 172325Z 13009KT 21/01 A2962 RMK A01 T02070010  RH  027%=      5-min Rain = 0
KQU1 172326Z 13010KT 21/01 A2962 RMK A01 T02070008  RH  027%=      5-min Rain = 0
KQU1 172327Z 13008KT 21/01 A2962 RMK A01 T02060010  RH  027%=      5-min Rain = 0
KQU1 172328Z 13009KT 21/01 A2962 RMK A01 T02060011  RH  027%=      5-min Rain = 0
KQU1 172329Z 12009KT 21/01 A2962 RMK A01 T02050011  RH  027%=      5-min Rain = 0
KQU1 172330Z 12009KT 21/01 A2962 RMK A01 T02050009  RH  027%=      5-min Rain = 0
KQU1 172331Z 13009KT 20/01 A2962 RMK A01 T02040011  RH  028%=      5-min Rain = 0
KQU1 172332Z 13009KT 20/01 A2962 RMK A01 T02040010  RH  027%=      5-min Rain = 0
KQU1 172333Z 13007KT 20/01 A2962 RMK A01 T02040013  RH  028%=      5-min Rain = 0
KQU1 172334Z 13007KT 20/02 A2962 RMK A01 T02040016  RH  029%=      5-min Rain = 0
KQU1 172335Z 13009KT 20/01 A2962 RMK A01 T02040012  RH  028%=      5-min Rain = 0
KQU1 172336Z 13010KT 20/01 A2962 RMK A01 T02030012  RH  028%=      5-min Rain = 0
KQU1 172337Z 12010KT 20/01 A2962 RMK A01 T02030012  RH  028%=      5-min Rain = 0
KQU1 172338Z 13008KT 20/01 A2962 RMK A01 T02020014  RH  029%=      5-min Rain = 0
KQU1 172339Z 13009KT 20/01 A2962 RMK A01 T02010013  RH  028%=      5-min Rain = 0
KQU1 172340Z 13008KT 20/01 A2962 RMK A01 T02010014  RH  029%=      5-min Rain = 0
KQU1 172341Z 12008KT 20/01 A2962 RMK A01 T02010014  RH  029%=      5-min Rain = 0
KQU1 172342Z 12008KT 20/02 A2962 RMK A01 T02000015  RH  029%=      5-min Rain = 0
KQU1 172343Z 12007KT 20/02 A2962 RMK A01 T02000017  RH  030%=      5-min Rain = 0
KQU1 172344Z 12008KT 20/02 A2962 RMK A01 T01990016  RH  029%=      5-min Rain = 0
KQU1 172345Z 12008KT 20/02 A2962 RMK A01 T01990016  RH  030%=      5-min Rain = 0
KQU1 172346Z 12008KT 20/02 A2962 RMK A01 T01980016  RH  030%=      5-min Rain = 0
KQU1 172347Z 12008KT 20/02 A2962 RMK A01 T01970016  RH  030%=      5-min Rain = 0
KQU1 172348Z 12008KT 20/02 A2962 RMK A01 T01970015  RH  030%=      5-min Rain = 0
KQU1 172349Z 12007KT 20/02 A2962 RMK A01 T01960016  RH  030%=      5-min Rain = 0
KQU1 172350Z 12007KT 20/02 A2962 RMK A01 T01960016  RH  030%=      5-min Rain = 0
KQU1 172351Z 13007KT 20/02 A2962 RMK A01 T01960017  RH  030%=      5-min Rain = 0
KQU1 172352Z 13006KT 20/02 A2962 RMK A01 T01960017  RH  030%=      5-min Rain = 0
KQU1 172353Z 13007KT 20/02 A2962 RMK A01 T01950017  RH  030%=      5-min Rain = 0
KQU1 172354Z 13008KT 20/02 A2962 RMK A01 T01950016  RH  030%=      5-min Rain = 0
KQU1 172355Z 14007KT 19/02 A2962 RMK A01 T01940016  RH  030%=      5-min Rain = 0
KQU1 172356Z 13007KT 19/02 A2962 RMK A01 T01940017  RH  031%=      5-min Rain = 0
KQU1 172357Z 13006KT 19/02 A2962 RMK A01 T01930018  RH  031%=      5-min Rain = 0
KQU1 172358Z 14006KT 19/02 A2962 RMK A01 T01930019  RH  031%=      5-min Rain = 0
KQU1 172359Z 14006KT 19/02 A2962 RMK A01 T01920019  RH  032%=      5-min Rain = 0
KQU1 180000Z 14007KT 19/02 A2962 RMK A01 T01910019  RH  032%=      5-min Rain = 0
KQU1 180001Z 14007KT 19/02 A2962 RMK A01 T01900019  RH  032%=      5-min Rain = 0
KQU1 180002Z 13006KT 19/02 A2963 RMK A01 T01890019  RH  032%=      5-min Rain = 0
KQU1 180003Z 13006KT 19/02 A2963 RMK A01 T01880020  RH  032%=      5-min Rain = 0
KQU1 180004Z 13006KT 19/02 A2963 RMK A01 T01870021  RH  033%=      5-min Rain = 0
KQU1 180005Z 13005KT 19/02 A2963 RMK A01 T01860022  RH  033%=      5-min Rain = 0
KQU1 180006Z 13005KT 19/02 A2963 RMK A01 T01860022  RH  033%=      5-min Rain = 0
KQU1 180007Z 14006KT 19/02 A2963 RMK A01 T01850022  RH  034%=      5-min Rain = 0
KQU1 180008Z 13005KT 18/02 A2963 RMK A01 T01840023  RH  034%=      5-min Rain = 0
KQU1 180009Z 13005KT 18/02 A2963 RMK A01 T01830024  RH  034%=      5-min Rain = 0
KQU1 180010Z 13005KT 18/02 A2963 RMK A01 T01820024  RH  035%=      5-min Rain = 0
KQU1 180011Z 13005KT 18/02 A2963 RMK A01 T01810024  RH  035%=      5-min Rain = 0
KQU1 180012Z 13005KT 18/02 A2963 RMK A01 T01800024  RH  035%=      5-min Rain = 0
KQU1 180013Z 12005KT 18/03 A2963 RMK A01 T01780025  RH  036%=      5-min Rain = 0
KQU1 180014Z 13005KT 18/03 A2963 RMK A01 T01770025  RH  036%=      5-min Rain = 0
KQU1 180015Z 13005KT 18/03 A2963 RMK A01 T01750026  RH  037%=      5-min Rain = 0
KQU1 180016Z 13005KT 17/03 A2963 RMK A01 T01740026  RH  037%=      5-min Rain = 0
KQU1 180017Z 13005KT 17/03 A2963 RMK A01 T01730026  RH  037%=      5-min Rain = 0
KQU1 180018Z 13004KT 17/03 A2963 RMK A01 T01720025  RH  037%=      5-min Rain = 0
KQU1 180019Z 13004KT 17/03 A2963 RMK A01 T01700026  RH  038%=      5-min Rain = 0
KQU1 180020Z 13003KT 17/03 A2963 RMK A01 T01680026  RH  038%=      5-min Rain = 0
KQU1 180021Z 13003KT 17/03 A2963 RMK A01 T01670026  RH  039%=      5-min Rain = 0
KQU1 180022Z 13003KT 17/03 A2963 RMK A01 T01650027  RH  039%=      5-min Rain = 0
KQU1 180023Z 13003KT 16/03 A2963 RMK A01 T01640027  RH  040%=      5-min Rain = 0
KQU1 180024Z 14003KT 16/03 A2963 RMK A01 T01630027  RH  040%=      5-min Rain = 0
KQU1 180025Z 13003KT 16/03 A2963 RMK A01 T01620027  RH  040%=      5-min Rain = 0
KQU1 180026Z 13003KT 16/03 A2963 RMK A01 T01610026  RH  040%=      5-min Rain = 0
KQU1 180027Z 13003KT 16/03 A2963 RMK A01 T01610027  RH  041%=      5-min Rain = 0
KQU1 180028Z 13003KT 16/03 A2963 RMK A01 T01600027  RH  041%=      5-min Rain = 0
KQU1 180029Z 13002KT 16/03 A2963 RMK A01 T01600027  RH  041%=      5-min Rain = 0
KQU1 180030Z 14002KT 16/03 A2963 RMK A01 T01600027  RH  041%=      5-min Rain = 0
KQU1 180031Z 14002KT 16/03 A2963 RMK A01 T01590027  RH  041%=      5-min Rain = 0
KQU1 180032Z 14002KT 16/03 A2963 RMK A01 T01590027  RH  041%=      5-min Rain = 0
KQU1 180033Z 14002KT 16/03 A2963 RMK A01 T01590027  RH  041%=      5-min Rain = 0
KQU1 180034Z 13002KT 16/03 A2963 RMK A01 T01590027  RH  041%=      5-min Rain = 0
KQU1 180035Z 13002KT 16/03 A2963 RMK A01 T01590026  RH  041%=      5-min Rain = 0
KQU1 180036Z 13003KT 16/03 A2963 RMK A01 T01590027  RH  041%=      5-min Rain = 0
KQU1 180037Z 13003KT 16/03 A2963 RMK A01 T01590027  RH  041%=      5-min Rain = 0
KQU1 180038Z 13003KT 16/03 A2963 RMK A01 T01580026  RH  041%=      5-min Rain = 0
KQU1 180039Z 12003KT 16/03 A2963 RMK A01 T01580026  RH  041%=      5-min Rain = 0
KQU1 180040Z 12003KT 16/03 A2963 RMK A01 T01580025  RH  041%=      5-min Rain = 0
KQU1 180041Z 12003KT 16/03 A2963 RMK A01 T01570025  RH  041%=      5-min Rain = 0
KQU1 180042Z 12004KT 16/02 A2963 RMK A01 T01560024  RH  041%=      5-min Rain = 0
KQU1 180043Z 12003KT 16/02 A2963 RMK A01 T01560024  RH  041%=      5-min Rain = 0
KQU1 180044Z 13003KT 16/02 A2963 RMK A01 T01550024  RH  041%=      5-min Rain = 0
KQU1 180045Z 15003KT 15/03 A2964 RMK A01 T01540025  RH  042%=      5-min Rain = 0
KQU1 180046Z 15003KT 15/03 A2964 RMK A01 T01540025  RH  042%=      5-min Rain = 0
KQU1 180047Z 16003KT 15/03 A2964 RMK A01 T01530026  RH  042%=      5-min Rain = 0
KQU1 180048Z 16003KT 15/03 A2964 RMK A01 T01520028  RH  043%=      5-min Rain = 0
KQU1 180049Z 16003KT 15/03 A2964 RMK A01 T01500027  RH  043%=      5-min Rain = 0
KQU1 180050Z 15003KT 15/03 A2964 RMK A01 T01490026  RH  044%=      5-min Rain = 0
KQU1 180051Z 15003KT 15/03 A2964 RMK A01 T01490027  RH  044%=      5-min Rain = 0
KQU1 180052Z 15003KT 15/03 A2964 RMK A01 T01490027  RH  044%=      5-min Rain = 0
KQU1 180053Z 15003KT 15/03 A2964 RMK A01 T01490026  RH  044%=      5-min Rain = 0
KQU1 180054Z 14004KT 15/03 A2964 RMK A01 T01490025  RH  043%=      5-min Rain = 0
KQU1 180055Z 14004KT 15/02 A2964 RMK A01 T01490024  RH  043%=      5-min Rain = 0
KQU1 180056Z 16003KT 15/03 A2964 RMK A01 T01480027  RH  044%=      5-min Rain = 0
KQU1 180057Z 16003KT 15/03 A2964 RMK A01 T01470029  RH  045%=      5-min Rain = 0
KQU1 180058Z 17002KT 15/03 A2964 RMK A01 T01460026  RH  044%=      5-min Rain = 0
KQU1 180059Z 17002KT 15/03 A2964 RMK A01 T01450025  RH  044%=      5-min Rain = 0
KQU1 180100Z 18002KT 14/03 A2964 RMK A01 T01440025  RH  045%=      5-min Rain = 0
KQU1 180101Z 18002KT 15/02 A2964 RMK A01 T01450024  RH  044%=      5-min Rain = 0
KQU1 180102Z 17003KT 15/02 A2964 RMK A01 T01450024  RH  044%=      5-min Rain = 0
KQU1 180103Z 17002KT 15/02 A2964 RMK A01 T01460024  RH  044%=      5-min Rain = 0
KQU1 180104Z 17002KT 15/03 A2964 RMK A01 T01460025  RH  044%=      5-min Rain = 0
KQU1 180105Z 17002KT 15/02 A2964 RMK A01 T01450024  RH  044%=      5-min Rain = 0
KQU1 180106Z 16002KT 14/03 A2964 RMK A01 T01440026  RH  045%=      5-min Rain = 0
KQU1 180107Z 16002KT 14/02 A2964 RMK A01 T01440024  RH  044%=      5-min Rain = 0
KQU1 180108Z 16002KT 14/02 A2964 RMK A01 T01440024  RH  044%=      5-min Rain = 0
KQU1 180109Z 15003KT 15/02 A2964 RMK A01 T01450024  RH  044%=      5-min Rain = 0
KQU1 180110Z 17002KT 14/03 A2964 RMK A01 T01440025  RH  044%=      5-min Rain = 0
KQU1 180111Z 17002KT 14/03 A2964 RMK A01 T01430025  RH  045%=      5-min Rain = 0
KQU1 180112Z 17001KT 14/03 A2965 RMK A01 T01420026  RH  045%=      5-min Rain = 0
KQU1 180113Z 19002KT 14/03 A2965 RMK A01 T01400027  RH  046%=      5-min Rain = 0
KQU1 180114Z 19002KT 14/03 A2965 RMK A01 T01360033  RH  050%=      5-min Rain = 0
KQU1 180115Z 19002KT 13/04 A2965 RMK A01 T01300035  RH  052%=      5-min Rain = 0
KQU1 180116Z 19002KT 13/04 A2965 RMK A01 T01260036  RH  054%=      5-min Rain = 0
KQU1 180117Z 20002KT 12/04 A2965 RMK A01 T01220037  RH  056%=      5-min Rain = 0
KQU1 180118Z 20002KT 12/04 A2965 RMK A01 T01190038  RH  057%=      5-min Rain = 0
KQU1 180119Z 20002KT 12/04 A2965 RMK A01 T01170038  RH  058%=      5-min Rain = 0
KQU1 180120Z 19002KT 12/04 A2965 RMK A01 T01160038  RH  059%=      5-min Rain = 0
KQU1 180121Z 17002KT 11/04 A2965 RMK A01 T01140038  RH  059%=      5-min Rain = 0
KQU1 180122Z 17002KT 12/03 A2965 RMK A01 T01150034  RH  058%=      5-min Rain = 0
KQU1 180123Z 18002KT 12/03 A2965 RMK A01 T01170033  RH  057%=      5-min Rain = 0
KQU1 180124Z 18002KT 12/03 A2965 RMK A01 T01190032  RH  055%=      5-min Rain = 0
KQU1 180125Z 16002KT 12/03 A2965 RMK A01 T01210031  RH  054%=      5-min Rain = 0
KQU1 180126Z 15002KT 12/03 A2965 RMK A01 T01240029  RH  052%=      5-min Rain = 0
KQU1 180127Z 15002KT 13/03 A2965 RMK A01 T01270029  RH  051%=      5-min Rain = 0
KQU1 180128Z 16002KT 13/03 A2965 RMK A01 T01290028  RH  050%=      5-min Rain = 0
KQU1 180129Z 16002KT 13/03 A2965 RMK A01 T01300028  RH  050%=      5-min Rain = 0
KQU1 180130Z 15003KT 13/03 A2965 RMK A01 T01300026  RH  049%=      5-min Rain = 0
KQU1 180131Z 15002KT 13/03 A2965 RMK A01 T01310027  RH  049%=      5-min Rain = 0
KQU1 180132Z 14003KT 13/03 A2965 RMK A01 T01300027  RH  050%=      5-min Rain = 0
KQU1 180133Z 14003KT 13/03 A2965 RMK A01 T01290027  RH  050%=      5-min Rain = 0
KQU1 180134Z 13002KT 13/03 A2965 RMK A01 T01270030  RH  052%=      5-min Rain = 0
KQU1 180135Z 12002KT 13/03 A2965 RMK A01 T01250030  RH  052%=      5-min Rain = 0
KQU1 180136Z 12002KT 12/03 A2965 RMK A01 T01240027  RH  051%=      5-min Rain = 0
KQU1 180137Z 13003KT 13/03 A2965 RMK A01 T01250027  RH  051%=      5-min Rain = 0
KQU1 180138Z 13002KT 13/03 A2965 RMK A01 T01250027  RH  052%=      5-min Rain = 0
KQU1 180139Z 13002KT 12/03 A2965 RMK A01 T01240028  RH  052%=      5-min Rain = 0
KQU1 180140Z 13002KT 12/03 A2966 RMK A01 T01240026  RH  051%=      5-min Rain = 0
KQU1 180141Z 13002KT 13/03 A2966 RMK A01 T01250026  RH  051%=      5-min Rain = 0
KQU1 180142Z 13002KT 12/03 A2966 RMK A01 T01240028  RH  052%=      5-min Rain = 0
KQU1 180143Z 12002KT 12/03 A2966 RMK A01 T01230025  RH  051%=      5-min Rain = 0
KQU1 180144Z 13002KT 12/03 A2966 RMK A01 T01240025  RH  051%=      5-min Rain = 0
KQU1 180145Z 12002KT 12/02 A2966 RMK A01 T01240023  RH  050%=      5-min Rain = 0
KQU1 180146Z 12003KT 13/02 A2966 RMK A01 T01260022  RH  049%=      5-min Rain = 0
KQU1 180147Z 12003KT 13/02 A2966 RMK A01 T01270023  RH  049%=      5-min Rain = 0
KQU1 180148Z 12003KT 13/02 A2966 RMK A01 T01270022  RH  049%=      5-min Rain = 0
KQU1 180149Z 12004KT 13/02 A2966 RMK A01 T01270022  RH  049%=      5-min Rain = 0
KQU1 180150Z 11004KT 13/02 A2966 RMK A01 T01270021  RH  048%=      5-min Rain = 0
KQU1 180151Z 11004KT 13/02 A2966 RMK A01 T01280021  RH  048%=      5-min Rain = 0
KQU1 180152Z 11004KT 13/02 A2966 RMK A01 T01280021  RH  048%=      5-min Rain = 0
KQU1 180153Z 11004KT 13/02 A2966 RMK A01 T01280020  RH  048%=      5-min Rain = 0
KQU1 180154Z 11004KT 13/02 A2966 RMK A01 T01280019  RH  048%=      5-min Rain = 0
KQU1 180155Z 10004KT 13/02 A2966 RMK A01 T01280020  RH  047%=      5-min Rain = 0
KQU1 180156Z 11004KT 13/02 A2966 RMK A01 T01280019  RH  047%=      5-min Rain = 0
KQU1 180157Z 11004KT 13/02 A2966 RMK A01 T01280019  RH  047%=      5-min Rain = 0
KQU1 180158Z 11003KT 13/02 A2966 RMK A01 T01280018  RH  047%=      5-min Rain = 0
KQU1 180159Z 11003KT 13/02 A2966 RMK A01 T01280018  RH  047%=      5-min Rain = 0
KQU1 180200Z 11003KT 13/02 A2966 RMK A01 T01280018  RH  047%=      5-min Rain = 0
KQU1 180201Z 11003KT 13/02 A2966 RMK A01 T01270018  RH  047%=      5-min Rain = 0
KQU1 180202Z 11002KT 13/02 A2966 RMK A01 T01270018  RH  047%=      5-min Rain = 0
KQU1 180203Z 12003KT 13/02 A2966 RMK A01 T01270018  RH  047%=      5-min Rain = 0
KQU1 180204Z 12002KT 13/02 A2966 RMK A01 T01270018  RH  047%=      5-min Rain = 0
KQU1 180205Z 12002KT 13/02 A2966 RMK A01 T01270017  RH  047%=      5-min Rain = 0
KQU1 180206Z 12002KT 13/02 A2966 RMK A01 T01270018  RH  047%=      5-min Rain = 0
KQU1 180207Z 13001KT 13/02 A2966 RMK A01 T01270018  RH  047%=      5-min Rain = 0
KQU1 180208Z 13002KT 13/02 A2966 RMK A01 T01270018  RH  048%=      5-min Rain = 0
KQU1 180209Z 13001KT 13/02 A2966 RMK A01 T01270018  RH  048%=      5-min Rain = 0
KQU1 180210Z 14001KT 13/02 A2966 RMK A01 T01260019  RH  048%=      5-min Rain = 0
KQU1 180211Z 14001KT 13/02 A2966 RMK A01 T01260019  RH  048%=      5-min Rain = 0
KQU1 180212Z 12002KT 13/02 A2966 RMK A01 T01250019  RH  048%=      5-min Rain = 0
KQU1 180213Z 12002KT 13/02 A2966 RMK A01 T01250019  RH  048%=      5-min Rain = 0
KQU1 180214Z 13001KT 13/02 A2966 RMK A01 T01250020  RH  049%=      5-min Rain = 0
KQU1 180215Z 13002KT 13/02 A2966 RMK A01 T01250021  RH  049%=      5-min Rain = 0
KQU1 180216Z 14002KT 12/02 A2966 RMK A01 T01240020  RH  049%=      5-min Rain = 0
KQU1 180217Z 14003KT 12/02 A2966 RMK A01 T01240020  RH  049%=      5-min Rain = 0
KQU1 180218Z 14002KT 13/02 A2966 RMK A01 T01250020  RH  049%=      5-min Rain = 0
KQU1 180219Z 15002KT 13/02 A2967 RMK A01 T01250021  RH  049%=      5-min Rain = 0
KQU1 180220Z 14003KT 12/02 A2967 RMK A01 T01240022  RH  049%=      5-min Rain = 0
KQU1 180221Z 14002KT 12/02 A2967 RMK A01 T01240022  RH  050%=      5-min Rain = 0
KQU1 180222Z 14003KT 12/02 A2967 RMK A01 T01240021  RH  050%=      5-min Rain = 0
KQU1 180223Z 14001KT 12/02 A2967 RMK A01 T01240022  RH  050%=      5-min Rain = 0
KQU1 180224Z 13002KT 12/02 A2967 RMK A01 T01230021  RH  050%=      5-min Rain = 0
KQU1 180225Z 14002KT 12/02 A2967 RMK A01 T01230021  RH  050%=      5-min Rain = 0
KQU1 180226Z 14003KT 12/02 A2967 RMK A01 T01240020  RH  049%=      5-min Rain = 0
KQU1 180227Z 14003KT 13/02 A2967 RMK A01 T01250020  RH  049%=      5-min Rain = 0
KQU1 180228Z 14003KT 13/02 A2967 RMK A01 T01250021  RH  049%=      5-min Rain = 0
KQU1 180229Z 14003KT 13/02 A2967 RMK A01 T01260021  RH  049%=      5-min Rain = 0
KQU1 180230Z 14003KT 13/02 A2967 RMK A01 T01250022  RH  049%=      5-min Rain = 0
KQU1 180231Z 14003KT 13/02 A2967 RMK A01 T01250023  RH  050%=      5-min Rain = 0
KQU1 180232Z 14003KT 12/02 A2967 RMK A01 T01240023  RH  050%=      5-min Rain = 0
KQU1 180233Z 14003KT 12/02 A2967 RMK A01 T01240023  RH  050%=      5-min Rain = 0
KQU1 180234Z 15003KT 12/02 A2967 RMK A01 T01230024  RH  051%=      5-min Rain = 0
KQU1 180235Z 14004KT 12/02 A2967 RMK A01 T01230024  RH  051%=      5-min Rain = 0
KQU1 180236Z 15003KT 12/03 A2967 RMK A01 T01220025  RH  051%=      5-min Rain = 0
KQU1 180237Z 14003KT 12/03 A2967 RMK A01 T01220025  RH  051%=      5-min Rain = 0
KQU1 180238Z 14003KT 12/03 A2967 RMK A01 T01220025  RH  051%=      5-min Rain = 0
KQU1 180239Z 15003KT 12/02 A2967 RMK A01 T01220024  RH  051%=      5-min Rain = 0
KQU1 180240Z 15003KT 12/02 A2967 RMK A01 T01220024  RH  051%=      5-min Rain = 0
KQU1 180241Z 15002KT 12/03 A2967 RMK A01 T01220025  RH  051%=      5-min Rain = 0
KQU1 180242Z 15002KT 12/03 A2967 RMK A01 T01220025  RH  051%=      5-min Rain = 0
KQU1 180243Z 14002KT 12/02 A2967 RMK A01 T01210024  RH  051%=      5-min Rain = 0
KQU1 180244Z 13003KT 12/02 A2967 RMK A01 T01210024  RH  051%=      5-min Rain = 0
KQU1 180245Z 12002KT 12/02 A2967 RMK A01 T01210023  RH  051%=      5-min Rain = 0
KQU1 180246Z 12002KT 12/02 A2967 RMK A01 T01220023  RH  051%=      5-min Rain = 0
KQU1 180247Z 12002KT 12/02 A2967 RMK A01 T01220023  RH  051%=      5-min Rain = 0
KQU1 180248Z 11002KT 12/03 A2967 RMK A01 T01220025  RH  051%=      5-min Rain = 0
KQU1 180249Z 11001KT 12/02 A2967 RMK A01 T01210024  RH  051%=      5-min Rain = 0
KQU1 180250Z 09002KT 12/02 A2967 RMK A01 T01200024  RH  052%=      5-min Rain = 0
KQU1 180251Z 11002KT 12/02 A2967 RMK A01 T01190024  RH  052%=      5-min Rain = 0
KQU1 180252Z 11002KT 12/03 A2967 RMK A01 T01170025  RH  053%=      5-min Rain = 0
KQU1 180253Z 12003KT 12/03 A2967 RMK A01 T01170025  RH  053%=      5-min Rain = 0
KQU1 180254Z 11002KT 12/03 A2967 RMK A01 T01160025  RH  053%=      5-min Rain = 0
KQU1 180255Z 14002KT 12/03 A2967 RMK A01 T01160025  RH  054%=      5-min Rain = 0
KQU1 180256Z 13002KT 12/02 A2967 RMK A01 T01150024  RH  054%=      5-min Rain = 0
KQU1 180257Z 14002KT 12/03 A2967 RMK A01 T01150025  RH  054%=      5-min Rain = 0
KQU1 180258Z 13002KT 12/03 A2967 RMK A01 T01150025  RH  054%=      5-min Rain = 0
KQU1 180259Z 15001KT 12/02 A2967 RMK A01 T01150024  RH  054%=      5-min Rain = 0
KQU1 180300Z 16001KT 12/03 A2967 RMK A01 T01150025  RH  054%=      5-min Rain = 0
KQU1 180301Z 16002KT 12/03 A2967 RMK A01 T01150025  RH  054%=      5-min Rain = 0
KQU1 180302Z 16002KT 12/02 A2968 RMK A01 T01150024  RH  054%=      5-min Rain = 0
KQU1 180303Z 17002KT 12/03 A2968 RMK A01 T01150025  RH  054%=      5-min Rain = 0
KQU1 180304Z 17002KT 11/03 A2968 RMK A01 T01140025  RH  054%=      5-min Rain = 0
KQU1 180305Z 17001KT 11/02 A2968 RMK A01 T01140024  RH  054%=      5-min Rain = 0
KQU1 180306Z 17002KT 11/03 A2968 RMK A01 T01140025  RH  054%=      5-min Rain = 0
KQU1 180307Z 17002KT 11/03 A2968 RMK A01 T01140025  RH  054%=      5-min Rain = 0
KQU1 180308Z 15002KT 11/03 A2968 RMK A01 T01130026  RH  055%=      5-min Rain = 0
KQU1 180309Z 19001KT 11/03 A2968 RMK A01 T01110025  RH  055%=      5-min Rain = 0
KQU1 180310Z 18001KT 11/03 A2968 RMK A01 T01110026  RH  056%=      5-min Rain = 0
KQU1 180311Z 15002KT 11/03 A2968 RMK A01 T01100025  RH  056%=      5-min Rain = 0
KQU1 180312Z 18002KT 11/03 A2968 RMK A01 T01100025  RH  056%=      5-min Rain = 0
KQU1 180313Z 17001KT 11/03 A2968 RMK A01 T01100025  RH  056%=      5-min Rain = 0
KQU1 180314Z 18002KT 11/03 A2968 RMK A01 T01100025  RH  056%=      5-min Rain = 0
KQU1 180315Z 15003KT 11/03 A2968 RMK A01 T01110025  RH  055%=      5-min Rain = 0
KQU1 180316Z 17002KT 11/03 A2968 RMK A01 T01110025  RH  055%=      5-min Rain = 0
KQU1 180317Z 16002KT 11/03 A2968 RMK A01 T01110025  RH  055%=      5-min Rain = 0
KQU1 180318Z 16002KT 11/03 A2968 RMK A01 T01110025  RH  055%=      5-min Rain = 0
KQU1 180319Z 14002KT 11/03 A2968 RMK A01 T01120025  RH  055%=      5-min Rain = 0
KQU1 180320Z 14002KT 11/02 A2968 RMK A01 T01120024  RH  054%=      5-min Rain = 0
KQU1 180321Z 14003KT 11/02 A2968 RMK A01 T01130023  RH  054%=      5-min Rain = 0
KQU1 180322Z 15003KT 11/02 A2968 RMK A01 T01140024  RH  054%=      5-min Rain = 0
KQU1 180323Z 14003KT 11/02 A2968 RMK A01 T01140023  RH  054%=      5-min Rain = 0
KQU1 180324Z 15003KT 11/02 A2968 RMK A01 T01140023  RH  053%=      5-min Rain = 0
KQU1 180325Z 15003KT 12/02 A2968 RMK A01 T01150023  RH  053%=      5-min Rain = 0
KQU1 180326Z 16002KT 12/02 A2968 RMK A01 T01150024  RH  053%=      5-min Rain = 0
KQU1 180327Z 17002KT 12/02 A2968 RMK A01 T01160023  RH  053%=      5-min Rain = 0
KQU1 180328Z 16003KT 12/02 A2968 RMK A01 T01160023  RH  053%=      5-min Rain = 0
KQU1 180329Z 17003KT 12/02 A2968 RMK A01 T01160023  RH  053%=      5-min Rain = 0
KQU1 180330Z 17003KT 12/02 A2968 RMK A01 T01170023  RH  053%=      5-min Rain = 0
KQU1 180331Z 18003KT 12/02 A2968 RMK A01 T01180022  RH  052%=      5-min Rain = 0
KQU1 180332Z 15003KT 12/02 A2968 RMK A01 T01180022  RH  052%=      5-min Rain = 0
KQU1 180333Z 16003KT 12/02 A2968 RMK A01 T01190022  RH  051%=      5-min Rain = 0
KQU1 180334Z 17002KT 12/02 A2968 RMK A01 T01190022  RH  051%=      5-min Rain = 0
KQU1 180335Z 17002KT 12/02 A2968 RMK A01 T01190022  RH  051%=      5-min Rain = 0
KQU1 180336Z 17002KT 12/02 A2968 RMK A01 T01190022  RH  051%=      5-min Rain = 0
KQU1 180337Z 16003KT 12/02 A2968 RMK A01 T01190021  RH  051%=      5-min Rain = 0
KQU1 180338Z 15004KT 12/02 A2968 RMK A01 T01190021  RH  051%=      5-min Rain = 0
KQU1 180339Z 15003KT 12/02 A2968 RMK A01 T01190020  RH  051%=      5-min Rain = 0
KQU1 180340Z 15002KT 12/02 A2969 RMK A01 T01190021  RH  051%=      5-min Rain = 0
KQU1 180341Z 15003KT 12/02 A2969 RMK A01 T01180021  RH  051%=      5-min Rain = 0
KQU1 180342Z 14003KT 12/02 A2968 RMK A01 T01180020  RH  051%=      5-min Rain = 0
KQU1 180343Z 14002KT 12/02 A2968 RMK A01 T01180019  RH  051%=      5-min Rain = 0
KQU1 180344Z 13002KT 12/02 A2969 RMK A01 T01180020  RH  051%=      5-min Rain = 0
KQU1 180345Z 14003KT 12/02 A2969 RMK A01 T01180019  RH  051%=      5-min Rain = 0
KQU1 180346Z 14003KT 12/02 A2969 RMK A01 T01180019  RH  051%=      5-min Rain = 0
KQU1 180347Z 15004KT 12/02 A2969 RMK A01 T01170019  RH  051%=      5-min Rain = 0
KQU1 180348Z 14002KT 12/02 A2969 RMK A01 T01170019  RH  051%=      5-min Rain = 0
KQU1 180349Z 15004KT 12/02 A2969 RMK A01 T01170020  RH  051%=      5-min Rain = 0
KQU1 180350Z 15003KT 12/02 A2969 RMK A01 T01170020  RH  051%=      5-min Rain = 0
KQU1 180351Z 16002KT 12/02 A2969 RMK A01 T01170020  RH  051%=      5-min Rain = 0
KQU1 180352Z 17002KT 12/02 A2969 RMK A01 T01170019  RH  051%=      5-min Rain = 0
KQU1 180353Z 14002KT 12/02 A2969 RMK A01 T01170019  RH  051%=      5-min Rain = 0
KQU1 180354Z 17001KT 12/02 A2969 RMK A01 T01180019  RH  051%=      5-min Rain = 0
KQU1 180355Z 17001KT 12/02 A2969 RMK A01 T01170019  RH  051%=      5-min Rain = 0
KQU1 180356Z 15002KT 12/02 A2969 RMK A01 T01170019  RH  051%=      5-min Rain = 0
KQU1 180357Z 18002KT 12/02 A2969 RMK A01 T01160019  RH  051%=      5-min Rain = 0
KQU1 180358Z 19002KT 12/02 A2969 RMK A01 T01160018  RH  051%=      5-min Rain = 0
KQU1 180359Z 17002KT 12/02 A2969 RMK A01 T01170018  RH  051%=      5-min Rain = 0
KQU1 180400Z 15003KT 12/02 A2969 RMK A01 T01180018  RH  050%=      5-min Rain = 0
KQU1 180401Z 17002KT 12/02 A2969 RMK A01 T01180018  RH  050%=      5-min Rain = 0
KQU1 180402Z 15003KT 12/02 A2969 RMK A01 T01180019  RH  050%=      5-min Rain = 0
KQU1 180403Z 16002KT 12/02 A2969 RMK A01 T01180020  RH  051%=      5-min Rain = 0
KQU1 180404Z 15002KT 12/02 A2969 RMK A01 T01170020  RH  052%=      5-min Rain = 0
KQU1 180405Z 16002KT 12/02 A2969 RMK A01 T01160019  RH  052%=      5-min Rain = 0
KQU1 180406Z 17002KT 12/02 A2969 RMK A01 T01160019  RH  051%=      5-min Rain = 0
KQU1 180407Z 18001KT 12/02 A2969 RMK A01 T01170018  RH  051%=      5-min Rain = 0
KQU1 180408Z 19002KT 12/02 A2969 RMK A01 T01170018  RH  051%=      5-min Rain = 0
KQU1 180409Z 20001KT 12/02 A2969 RMK A01 T01170018  RH  051%=      5-min Rain = 0
KQU1 180410Z 20001KT 12/02 A2969 RMK A01 T01170018  RH  051%=      5-min Rain = 0
KQU1 180411Z 20001KT 12/02 A2969 RMK A01 T01150018  RH  051%=      5-min Rain = 0
KQU1 180412Z 19001KT 11/02 A2969 RMK A01 T01130019  RH  052%=      5-min Rain = 0
KQU1 180413Z 15001KT 11/02 A2969 RMK A01 T01120018  RH  052%=      5-min Rain = 0
KQU1 180414Z 19002KT 11/02 A2969 RMK A01 T01140017  RH  051%=      5-min Rain = 0
KQU1 180415Z 23001KT 11/02 A2969 RMK A01 T01140018  RH  052%=      5-min Rain = 0
KQU1 180416Z 15002KT 12/02 A297 RMK A01 T01150017  RH  051%=      5-min Rain = 0
KQU1 180417Z 17001KT 12/02 A297 RMK A01 T01160018  RH  051%=      5-min Rain = 0
KQU1 180418Z 25000KT 12/02 A297 RMK A01 T01160019  RH  051%=      5-min Rain = 0
KQU1 180419Z 00000KT 12/02 A297 RMK A01 T01160018  RH  051%=      5-min Rain = 0
KQU1 180420Z 12001KT 12/02 A297 RMK A01 T01160018  RH  051%=      5-min Rain = 0
KQU1 180421Z 13001KT 12/02 A297 RMK A01 T01160018  RH  051%=      5-min Rain = 0
KQU1 180422Z 13000KT 12/02 A297 RMK A01 T01150020  RH  052%=      5-min Rain = 0
KQU1 180423Z 15000KT 11/02 A297 RMK A01 T01140022  RH  053%=      5-min Rain = 0
KQU1 180424Z 00000KT 11/02 A297 RMK A01 T01110020  RH  054%=      5-min Rain = 0
KQU1 180425Z 28000KT 11/02 A297 RMK A01 T01070021  RH  055%=      5-min Rain = 0
KQU1 180426Z 29001KT 10/02 A297 RMK A01 T01030021  RH  057%=      5-min Rain = 0
KQU1 180427Z 27002KT 10/02 A297 RMK A01 T00990022  RH  059%=      5-min Rain = 0
KQU1 180428Z 28001KT 09/02 A297 RMK A01 T00940022  RH  060%=      5-min Rain = 0
KQU1 180429Z 27001KT 09/02 A297 RMK A01 T00900022  RH  062%=      5-min Rain = 0
KQU1 180430Z 27002KT 09/02 A297 RMK A01 T00870024  RH  065%=      5-min Rain = 0
KQU1 180431Z 28001KT 09/02 A297 RMK A01 T00850024  RH  066%=      5-min Rain = 0
KQU1 180432Z 31002KT 08/03 A297 RMK A01 T00820025  RH  068%=      5-min Rain = 0
KQU1 180433Z 31002KT 08/03 A297 RMK A01 T00790025  RH  069%=      5-min Rain = 0
KQU1 180434Z 31002KT 08/03 A297 RMK A01 T00760025  RH  070%=      5-min Rain = 0
KQU1 180435Z 30003KT 07/03 A297 RMK A01 T00740025  RH  071%=      5-min Rain = 0
KQU1 180436Z 31004KT 07/02 A297 RMK A01 T00710024  RH  072%=      5-min Rain = 0
KQU1 180437Z 31004KT 07/03 A297 RMK A01 T00690025  RH  073%=      5-min Rain = 0
KQU1 180438Z 32003KT 07/03 A297 RMK A01 T00690025  RH  073%=      5-min Rain = 0
KQU1 180439Z 31004KT 07/03 A297 RMK A01 T00710025  RH  073%=      5-min Rain = 0
KQU1 180440Z 32004KT 07/03 A297 RMK A01 T00730025  RH  072%=      5-min Rain = 0
KQU1 180441Z 32004KT 07/03 A297 RMK A01 T00730025  RH  072%=      5-min Rain = 0
KQU1 180442Z 33003KT 07/03 A297 RMK A01 T00720025  RH  072%=      5-min Rain = 0
KQU1 180443Z 34003KT 07/03 A297 RMK A01 T00720026  RH  073%=      5-min Rain = 0
KQU1 180444Z 34003KT 07/03 A297 RMK A01 T00710026  RH  073%=      5-min Rain = 0
KQU1 180445Z 35003KT 07/03 A297 RMK A01 T00700025  RH  073%=      5-min Rain = 0
KQU1 180446Z 35002KT 07/03 A297 RMK A01 T00690026  RH  074%=      5-min Rain = 0
KQU1 180447Z 00001KT 07/03 A297 RMK A01 T00690026  RH  074%=      5-min Rain = 0
KQU1 180448Z 02001KT 07/03 A297 RMK A01 T00700027  RH  074%=      5-min Rain = 0
KQU1 180449Z 02001KT 07/03 A297 RMK A01 T00700027  RH  074%=      5-min Rain = 0
KQU1 180450Z 01001KT 07/03 A297 RMK A01 T00700026  RH  074%=      5-min Rain = 0
KQU1 180451Z 02000KT 07/03 A297 RMK A01 T00700026  RH  074%=      5-min Rain = 0
KQU1 180452Z 34001KT 07/03 A297 RMK A01 T00700026  RH  073%=      5-min Rain = 0
KQU1 180453Z 34001KT 07/03 A297 RMK A01 T00700026  RH  074%=      5-min Rain = 0
KQU1 180454Z 33002KT 07/03 A297 RMK A01 T00700026  RH  074%=      5-min Rain = 0
KQU1 180455Z 32002KT 07/03 A297 RMK A01 T00690026  RH  074%=      5-min Rain = 0
KQU1 180456Z 34002KT 07/03 A297 RMK A01 T00680026  RH  075%=      5-min Rain = 0
KQU1 180457Z 33002KT 07/03 A297 RMK A01 T00680027  RH  075%=      5-min Rain = 0
KQU1 180458Z 33002KT 07/03 A297 RMK A01 T00670027  RH  075%=      5-min Rain = 0
KQU1 180459Z 33003KT 07/03 A297 RMK A01 T00670026  RH  075%=      5-min Rain = 0
KQU1 180500Z 33003KT 07/03 A297 RMK A01 T00660026  RH  075%=      5-min Rain = 0
KQU1 180501Z 33003KT 07/03 A297 RMK A01 T00650026  RH  076%=      5-min Rain = 0
KQU1 180502Z 32003KT 07/03 A297 RMK A01 T00650026  RH  076%=      5-min Rain = 0
KQU1 180503Z 32003KT 07/03 A297 RMK A01 T00650026  RH  076%=      5-min Rain = 0
KQU1 180504Z 32003KT 06/03 A297 RMK A01 T00640025  RH  076%=      5-min Rain = 0
KQU1 180505Z 32004KT 06/03 A297 RMK A01 T00630025  RH  077%=      5-min Rain = 0
KQU1 180506Z 31003KT 06/03 A297 RMK A01 T00620026  RH  077%=      5-min Rain = 0
KQU1 180507Z 31004KT 06/03 A297 RMK A01 T00620025  RH  077%=      5-min Rain = 0
KQU1 180508Z 30004KT 06/03 A297 RMK A01 T00610025  RH  078%=      5-min Rain = 0
KQU1 180509Z 31004KT 06/03 A297 RMK A01 T00610026  RH  078%=      5-min Rain = 0
KQU1 180510Z 31004KT 06/03 A297 RMK A01 T00610026  RH  078%=      5-min Rain = 0
KQU1 180511Z 31004KT 06/03 A297 RMK A01 T00620026  RH  078%=      5-min Rain = 0
KQU1 180512Z 31004KT 06/03 A297 RMK A01 T00620026  RH  078%=      5-min Rain = 0
KQU1 180513Z 32004KT 06/03 A297 RMK A01 T00610026  RH  078%=      5-min Rain = 0
KQU1 180514Z 32004KT 06/03 A297 RMK A01 T00610025  RH  078%=      5-min Rain = 0
KQU1 180515Z 31004KT 06/03 A297 RMK A01 T00610025  RH  078%=      5-min Rain = 0
KQU1 180516Z 31005KT 06/02 A297 RMK A01 T00600024  RH  078%=      5-min Rain = 0
KQU1 180517Z 30004KT 06/02 A297 RMK A01 T00590024  RH  078%=      5-min Rain = 0
KQU1 180518Z 30005KT 06/02 A297 RMK A01 T00580024  RH  079%=      5-min Rain = 0
KQU1 180519Z 30004KT 06/02 A297 RMK A01 T00570024  RH  080%=      5-min Rain = 0
KQU1 180520Z 30004KT 06/03 A297 RMK A01 T00560025  RH  080%=      5-min Rain = 0
KQU1 180521Z 31004KT 06/03 A297 RMK A01 T00560025  RH  080%=      5-min Rain = 0
KQU1 180522Z 31004KT 06/03 A297 RMK A01 T00560025  RH  080%=      5-min Rain = 0
KQU1 180523Z 31004KT 06/03 A297 RMK A01 T00570025  RH  080%=      5-min Rain = 0
KQU1 180524Z 32004KT 06/03 A297 RMK A01 T00560025  RH  080%=      5-min Rain = 0
KQU1 180525Z 31005KT 06/02 A297 RMK A01 T00560024  RH  080%=      5-min Rain = 0
KQU1 180526Z 32005KT 06/02 A297 RMK A01 T00550024  RH  080%=      5-min Rain = 0
KQU1 180527Z 31004KT 06/02 A297 RMK A01 T00550024  RH  081%=      5-min Rain = 0
KQU1 180528Z 31005KT 06/02 A297 RMK A01 T00550024  RH  081%=      5-min Rain = 0
KQU1 180529Z 31004KT 05/02 A297 RMK A01 T00540024  RH  081%=      5-min Rain = 0
KQU1 180530Z 31005KT 05/03 A297 RMK A01 T00540025  RH  081%=      5-min Rain = 0
KQU1 180531Z 31005KT 05/03 A297 RMK A01 T00540025  RH  081%=      5-min Rain = 0
KQU1 180532Z 30006KT 05/03 A297 RMK A01 T00530025  RH  082%=      5-min Rain = 0
KQU1 180533Z 30005KT 05/03 A297 RMK A01 T00530025  RH  082%=      5-min Rain = 0
KQU1 180534Z 30005KT 05/03 A297 RMK A01 T00540026  RH  082%=      5-min Rain = 0
KQU1 180535Z 29005KT 05/03 A297 RMK A01 T00540025  RH  082%=      5-min Rain = 0
KQU1 180536Z 29004KT 06/03 A297 RMK A01 T00550025  RH  081%=      5-min Rain = 0
KQU1 180537Z 30005KT 06/03 A297 RMK A01 T00550025  RH  081%=      5-min Rain = 0
KQU1 180538Z 31004KT 06/02 A297 RMK A01 T00550024  RH  080%=      5-min Rain = 0
KQU1 180539Z 31004KT 06/02 A297 RMK A01 T00550024  RH  080%=      5-min Rain = 0
KQU1 180540Z 31004KT 06/02 A297 RMK A01 T00560024  RH  080%=      5-min Rain = 0
KQU1 180541Z 32003KT 06/02 A297 RMK A01 T00560024  RH  080%=      5-min Rain = 0
KQU1 180542Z 33004KT 06/03 A297 RMK A01 T00570025  RH  079%=      5-min Rain = 0
KQU1 180543Z 32003KT 06/03 A297 RMK A01 T00590025  RH  079%=      5-min Rain = 0
KQU1 180544Z 31003KT 06/03 A297 RMK A01 T00600025  RH  078%=      5-min Rain = 0
KQU1 180545Z 31003KT 06/03 A297 RMK A01 T00610025  RH  078%=      5-min Rain = 0
KQU1 180546Z 31005KT 06/03 A2969 RMK A01 T00620025  RH  077%=      5-min Rain = 0
KQU1 180547Z 31005KT 06/03 A297 RMK A01 T00640025  RH  076%=      5-min Rain = 0
KQU1 180548Z 31005KT 06/03 A297 RMK A01 T00630025  RH  077%=      5-min Rain = 0
KQU1 180549Z 33005KT 06/03 A297 RMK A01 T00630026  RH  077%=      5-min Rain = 0
KQU1 180550Z 32004KT 07/03 A297 RMK A01 T00660027  RH  076%=      5-min Rain = 0
KQU1 180551Z 31004KT 07/03 A297 RMK A01 T00670028  RH  076%=      5-min Rain = 0
KQU1 180552Z 33004KT 07/03 A297 RMK A01 T00670027  RH  076%=      5-min Rain = 0
KQU1 180553Z 30003KT 07/03 A297 RMK A01 T00690027  RH  074%=      5-min Rain = 0
KQU1 180554Z 28003KT 07/03 A297 RMK A01 T00710027  RH  074%=      5-min Rain = 0
KQU1 180555Z 29001KT 07/03 A297 RMK A01 T00700026  RH  074%=      5-min Rain = 0
KQU1 180556Z 30003KT 07/03 A297 RMK A01 T00690025  RH  074%=      5-min Rain = 0
KQU1 180557Z 31004KT 07/02 A297 RMK A01 T00690024  RH  073%=      5-min Rain = 0
KQU1 180558Z 30003KT 07/03 A297 RMK A01 T00680025  RH  074%=      5-min Rain = 0
KQU1 180559Z 31003KT 07/03 A297 RMK A01 T00670025  RH  074%=      5-min Rain = 0
KQU1 180600Z 32003KT 07/02 A297 RMK A01 T00660024  RH  075%=      5-min Rain = 0

Page generated in 0.0933 seconds.